<?xml version="1.0" encoding="UTF-8" standalone="yes"?>
<gpx
 xmlns="http://www.topografix.com/GPX/1/1"
 creator="OziExplorer Version 3956d - http://www.oziexplorer.com"
 version="1.1"
 xmlns:xsi="http://www.w3.org/2001/XMLSchema-instance"
 xsi:schemaLocation="http://www.topografix.com/GPX/1/1 http://www.topografix.com/GPX/1/1/gpx.xsd">
<metadata>
 <time>2015-03-03T17:43:43Z</time>
 <bounds minlat="30.849684" minlon="34.760695" maxlat="30.908943" maxlon="34.860819"/>
</metadata>
<trk>
 <name>halukim1_Udl_37km</name>
 <desc>BenGurion-Halukim_udl, 37 km</desc>
<trkseg>
<trkpt lat="30.8498200" lon="34.7791820">
<ele>480.100006</ele>
<time>2014-01-03T06:58:53.000Z</time>
</trkpt>
<trkpt lat="30.8498230" lon="34.7792560">
<ele>480.299988</ele>
<time>2014-01-03T07:00:12.000Z</time>
</trkpt>
<trkpt lat="30.8497770" lon="34.7792220">
<ele>480.200012</ele>
<time>2014-01-03T07:01:22.000Z</time>
</trkpt>
<trkpt lat="30.8500110" lon="34.7793370">
<ele>480.399994</ele>
<time>2014-01-03T07:02:06.000Z</time>
</trkpt>
<trkpt lat="30.8501080" lon="34.7793140">
<ele>480.299988</ele>
<time>2014-01-03T07:02:08.000Z</time>
</trkpt>
<trkpt lat="30.8503640" lon="34.7790870">
<ele>480.000000</ele>
<time>2014-01-03T07:02:18.000Z</time>
</trkpt>
<trkpt lat="30.8504470" lon="34.7788870">
<ele>480.000000</ele>
<time>2014-01-03T07:02:24.000Z</time>
</trkpt>
<trkpt lat="30.8504610" lon="34.7787770">
<ele>480.000000</ele>
<time>2014-01-03T07:02:30.000Z</time>
</trkpt>
<trkpt lat="30.8503920" lon="34.7786780">
<ele>479.900024</ele>
<time>2014-01-03T07:02:34.000Z</time>
</trkpt>
<trkpt lat="30.8503880" lon="34.7785730">
<ele>479.900024</ele>
<time>2014-01-03T07:02:38.000Z</time>
</trkpt>
<trkpt lat="30.8509630" lon="34.7777740">
<ele>480.299988</ele>
<time>2014-01-03T07:03:00.000Z</time>
</trkpt>
<trkpt lat="30.8511480" lon="34.7774600">
<ele>479.399994</ele>
<time>2014-01-03T07:03:06.000Z</time>
</trkpt>
<trkpt lat="30.8524890" lon="34.7754820">
<ele>470.899994</ele>
<time>2014-01-03T07:03:55.000Z</time>
</trkpt>
<trkpt lat="30.8529560" lon="34.7746550">
<ele>479.099976</ele>
<time>2014-01-03T07:04:22.000Z</time>
</trkpt>
<trkpt lat="30.8530920" lon="34.7743400">
<ele>480.100006</ele>
<time>2014-01-03T07:04:31.000Z</time>
</trkpt>
<trkpt lat="30.8532550" lon="34.7738910">
<ele>481.000000</ele>
<time>2014-01-03T07:04:45.000Z</time>
</trkpt>
<trkpt lat="30.8535780" lon="34.7724220">
<ele>479.300018</ele>
<time>2014-01-03T07:05:24.000Z</time>
</trkpt>
<trkpt lat="30.8539960" lon="34.7708080">
<ele>488.100006</ele>
<time>2014-01-03T07:06:10.000Z</time>
</trkpt>
<trkpt lat="30.8540200" lon="34.7707070">
<ele>488.600006</ele>
<time>2014-01-03T07:06:14.000Z</time>
</trkpt>
<trkpt lat="30.8541060" lon="34.7706980">
<ele>489.100006</ele>
<time>2014-01-03T07:06:23.000Z</time>
</trkpt>
<trkpt lat="30.8542000" lon="34.7706460">
<ele>489.899994</ele>
<time>2014-01-03T07:06:29.000Z</time>
</trkpt>
<trkpt lat="30.8542130" lon="34.7705080">
<ele>490.399994</ele>
<time>2014-01-03T07:06:33.000Z</time>
</trkpt>
<trkpt lat="30.8542110" lon="34.7703960">
<ele>490.899994</ele>
<time>2014-01-03T07:06:36.000Z</time>
</trkpt>
<trkpt lat="30.8541140" lon="34.7700470">
<ele>492.000000</ele>
<time>2014-01-03T07:06:49.000Z</time>
</trkpt>
<trkpt lat="30.8539620" lon="34.7698860">
<ele>492.100006</ele>
<time>2014-01-03T07:06:54.000Z</time>
</trkpt>
<trkpt lat="30.8539320" lon="34.7697830">
<ele>492.600006</ele>
<time>2014-01-03T07:07:03.000Z</time>
</trkpt>
<trkpt lat="30.8539170" lon="34.7698380">
<ele>492.199982</ele>
<time>2014-01-03T07:07:24.000Z</time>
</trkpt>
<trkpt lat="30.8538240" lon="34.7698270">
<ele>491.899994</ele>
<time>2014-01-03T07:07:28.000Z</time>
</trkpt>
<trkpt lat="30.8526820" lon="34.7689070">
<ele>495.700012</ele>
<time>2014-01-03T07:07:59.000Z</time>
</trkpt>
<trkpt lat="30.8526380" lon="34.7687830">
<ele>496.500000</ele>
<time>2014-01-03T07:08:03.000Z</time>
</trkpt>
<trkpt lat="30.8526700" lon="34.7686510">
<ele>497.399994</ele>
<time>2014-01-03T07:08:07.000Z</time>
</trkpt>
<trkpt lat="30.8529260" lon="34.7681000">
<ele>501.699982</ele>
<time>2014-01-03T07:08:26.000Z</time>
</trkpt>
<trkpt lat="30.8529560" lon="34.7680000">
<ele>502.500000</ele>
<time>2014-01-03T07:08:29.000Z</time>
</trkpt>
<trkpt lat="30.8530140" lon="34.7671650">
<ele>509.600006</ele>
<time>2014-01-03T07:08:55.000Z</time>
</trkpt>
<trkpt lat="30.8532200" lon="34.7658060">
<ele>516.000000</ele>
<time>2014-01-03T07:09:38.000Z</time>
</trkpt>
<trkpt lat="30.8532400" lon="34.7655780">
<ele>517.000000</ele>
<time>2014-01-03T07:09:46.000Z</time>
</trkpt>
<trkpt lat="30.8531780" lon="34.7652520">
<ele>519.599976</ele>
<time>2014-01-03T07:09:58.000Z</time>
</trkpt>
<trkpt lat="30.8532020" lon="34.7647980">
<ele>521.299988</ele>
<time>2014-01-03T07:10:13.000Z</time>
</trkpt>
<trkpt lat="30.8531260" lon="34.7645890">
<ele>523.200012</ele>
<time>2014-01-03T07:10:21.000Z</time>
</trkpt>
<trkpt lat="30.8531150" lon="34.7644820">
<ele>524.099976</ele>
<time>2014-01-03T07:10:25.000Z</time>
</trkpt>
<trkpt lat="30.8531850" lon="34.7640060">
<ele>526.200012</ele>
<time>2014-01-03T07:11:23.000Z</time>
</trkpt>
<trkpt lat="30.8531650" lon="34.7636410">
<ele>528.500000</ele>
<time>2014-01-03T07:11:34.000Z</time>
</trkpt>
<trkpt lat="30.8531780" lon="34.7635110">
<ele>528.799988</ele>
<time>2014-01-03T07:11:38.000Z</time>
</trkpt>
<trkpt lat="30.8532980" lon="34.7631550">
<ele>528.200012</ele>
<time>2014-01-03T07:11:50.000Z</time>
</trkpt>
<trkpt lat="30.8533130" lon="34.7630380">
<ele>528.400024</ele>
<time>2014-01-03T07:11:54.000Z</time>
</trkpt>
<trkpt lat="30.8533150" lon="34.7624500">
<ele>530.700012</ele>
<time>2014-01-03T07:12:14.000Z</time>
</trkpt>
<trkpt lat="30.8533950" lon="34.7622310">
<ele>530.500000</ele>
<time>2014-01-03T07:12:23.000Z</time>
</trkpt>
<trkpt lat="30.8534640" lon="34.7618850">
<ele>531.799988</ele>
<time>2014-01-03T07:12:36.000Z</time>
</trkpt>
<trkpt lat="30.8535360" lon="34.7617920">
<ele>531.799988</ele>
<time>2014-01-03T07:12:40.000Z</time>
</trkpt>
<trkpt lat="30.8538860" lon="34.7615440">
<ele>533.700012</ele>
<time>2014-01-03T07:12:59.000Z</time>
</trkpt>
<trkpt lat="30.8544260" lon="34.7613050">
<ele>540.099976</ele>
<time>2014-01-03T07:13:42.000Z</time>
</trkpt>
<trkpt lat="30.8549160" lon="34.7608610">
<ele>546.000000</ele>
<time>2014-01-03T07:14:40.000Z</time>
</trkpt>
<trkpt lat="30.8550000" lon="34.7608170">
<ele>546.200012</ele>
<time>2014-01-03T07:14:46.000Z</time>
</trkpt>
<trkpt lat="30.8550950" lon="34.7608180">
<ele>545.799988</ele>
<time>2014-01-03T07:14:52.000Z</time>
</trkpt>
<trkpt lat="30.8553540" lon="34.7607130">
<ele>546.000000</ele>
<time>2014-01-03T07:15:46.000Z</time>
</trkpt>
<trkpt lat="30.8556610" lon="34.7606990">
<ele>545.900024</ele>
<time>2014-01-03T07:16:08.000Z</time>
</trkpt>
<trkpt lat="30.8557250" lon="34.7609180">
<ele>543.700012</ele>
<time>2014-01-03T07:16:20.000Z</time>
</trkpt>
<trkpt lat="30.8557540" lon="34.7611380">
<ele>541.599976</ele>
<time>2014-01-03T07:16:31.000Z</time>
</trkpt>
<trkpt lat="30.8557670" lon="34.7613610">
<ele>540.399963</ele>
<time>2014-01-03T07:16:43.000Z</time>
</trkpt>
<trkpt lat="30.8558310" lon="34.7615660">
<ele>540.799988</ele>
<time>2014-01-03T07:16:57.000Z</time>
</trkpt>
<trkpt lat="30.8559890" lon="34.7616780">
<ele>542.500000</ele>
<time>2014-01-03T07:17:10.000Z</time>
</trkpt>
<trkpt lat="30.8560970" lon="34.7617020">
<ele>543.799988</ele>
<time>2014-01-03T07:18:00.000Z</time>
</trkpt>
<trkpt lat="30.8560830" lon="34.7616570">
<ele>543.600037</ele>
<time>2014-01-03T07:18:41.000Z</time>
</trkpt>
<trkpt lat="30.8560990" lon="34.7616600">
<ele>543.799988</ele>
<time>2014-01-03T07:19:21.000Z</time>
</trkpt>
<trkpt lat="30.8560750" lon="34.7616640">
<ele>543.500000</ele>
<time>2014-01-03T07:20:00.000Z</time>
</trkpt>
<trkpt lat="30.8560730" lon="34.7616530">
<ele>543.500000</ele>
<time>2014-01-03T07:22:41.000Z</time>
</trkpt>
<trkpt lat="30.8561630" lon="34.7618040">
<ele>544.899963</ele>
<time>2014-01-03T07:23:28.000Z</time>
</trkpt>
<trkpt lat="30.8563180" lon="34.7622620">
<ele>547.799988</ele>
<time>2014-01-03T07:23:46.000Z</time>
</trkpt>
<trkpt lat="30.8564750" lon="34.7626160">
<ele>549.500000</ele>
<time>2014-01-03T07:23:55.000Z</time>
</trkpt>
<trkpt lat="30.8565660" lon="34.7626870">
<ele>549.700012</ele>
<time>2014-01-03T07:23:59.000Z</time>
</trkpt>
<trkpt lat="30.8566680" lon="34.7627180">
<ele>549.600037</ele>
<time>2014-01-03T07:24:02.000Z</time>
</trkpt>
<trkpt lat="30.8568570" lon="34.7628270">
<ele>549.799988</ele>
<time>2014-01-03T07:24:09.000Z</time>
</trkpt>
<trkpt lat="30.8569580" lon="34.7628030">
<ele>549.399963</ele>
<time>2014-01-03T07:24:13.000Z</time>
</trkpt>
<trkpt lat="30.8570670" lon="34.7628370">
<ele>549.399963</ele>
<time>2014-01-03T07:24:17.000Z</time>
</trkpt>
<trkpt lat="30.8572420" lon="34.7630170">
<ele>551.200012</ele>
<time>2014-01-03T07:24:25.000Z</time>
</trkpt>
<trkpt lat="30.8573310" lon="34.7630720">
<ele>551.799988</ele>
<time>2014-01-03T07:24:27.000Z</time>
</trkpt>
<trkpt lat="30.8576030" lon="34.7631840">
<ele>553.100037</ele>
<time>2014-01-03T07:24:37.000Z</time>
</trkpt>
<trkpt lat="30.8577020" lon="34.7632030">
<ele>553.400024</ele>
<time>2014-01-03T07:24:41.000Z</time>
</trkpt>
<trkpt lat="30.8577920" lon="34.7632630">
<ele>553.900024</ele>
<time>2014-01-03T07:24:45.000Z</time>
</trkpt>
<trkpt lat="30.8579380" lon="34.7634310">
<ele>555.000000</ele>
<time>2014-01-03T07:24:50.000Z</time>
</trkpt>
<trkpt lat="30.8581190" lon="34.7635530">
<ele>554.500000</ele>
<time>2014-01-03T07:24:57.000Z</time>
</trkpt>
<trkpt lat="30.8583540" lon="34.7637750">
<ele>553.799988</ele>
<time>2014-01-03T07:25:09.000Z</time>
</trkpt>
<trkpt lat="30.8585000" lon="34.7639550">
<ele>552.799988</ele>
<time>2014-01-03T07:25:17.000Z</time>
</trkpt>
<trkpt lat="30.8586690" lon="34.7641060">
<ele>552.099976</ele>
<time>2014-01-03T07:25:26.000Z</time>
</trkpt>
<trkpt lat="30.8586980" lon="34.7642380">
<ele>552.300049</ele>
<time>2014-01-03T07:25:31.000Z</time>
</trkpt>
<trkpt lat="30.8586740" lon="34.7643550">
<ele>552.500000</ele>
<time>2014-01-03T07:25:35.000Z</time>
</trkpt>
<trkpt lat="30.8586360" lon="34.7644690">
<ele>552.700012</ele>
<time>2014-01-03T07:25:39.000Z</time>
</trkpt>
<trkpt lat="30.8585120" lon="34.7646550">
<ele>551.900024</ele>
<time>2014-01-03T07:25:50.000Z</time>
</trkpt>
<trkpt lat="30.8584970" lon="34.7647690">
<ele>550.500000</ele>
<time>2014-01-03T07:25:54.000Z</time>
</trkpt>
<trkpt lat="30.8585100" lon="34.7650080">
<ele>547.799988</ele>
<time>2014-01-03T07:26:01.000Z</time>
</trkpt>
<trkpt lat="30.8585640" lon="34.7651220">
<ele>546.700012</ele>
<time>2014-01-03T07:26:05.000Z</time>
</trkpt>
<trkpt lat="30.8586400" lon="34.7651980">
<ele>546.399963</ele>
<time>2014-01-03T07:26:09.000Z</time>
</trkpt>
<trkpt lat="30.8587500" lon="34.7651900">
<ele>547.200012</ele>
<time>2014-01-03T07:26:14.000Z</time>
</trkpt>
<trkpt lat="30.8589600" lon="34.7651020">
<ele>547.400024</ele>
<time>2014-01-03T07:26:22.000Z</time>
</trkpt>
<trkpt lat="30.8591750" lon="34.7650590">
<ele>547.200012</ele>
<time>2014-01-03T07:26:30.000Z</time>
</trkpt>
<trkpt lat="30.8595000" lon="34.7651090">
<ele>545.799988</ele>
<time>2014-01-03T07:26:42.000Z</time>
</trkpt>
<trkpt lat="30.8597120" lon="34.7650140">
<ele>545.900024</ele>
<time>2014-01-03T07:26:49.000Z</time>
</trkpt>
<trkpt lat="30.8598170" lon="34.7650010">
<ele>545.599976</ele>
<time>2014-01-03T07:26:52.000Z</time>
</trkpt>
<trkpt lat="30.8602170" lon="34.7650850">
<ele>543.299988</ele>
<time>2014-01-03T07:27:04.000Z</time>
</trkpt>
<trkpt lat="30.8603160" lon="34.7650740">
<ele>543.099976</ele>
<time>2014-01-03T07:27:08.000Z</time>
</trkpt>
<trkpt lat="30.8609800" lon="34.7651200">
<ele>539.799988</ele>
<time>2014-01-03T07:27:27.000Z</time>
</trkpt>
<trkpt lat="30.8610960" lon="34.7651090">
<ele>539.500000</ele>
<time>2014-01-03T07:27:30.000Z</time>
</trkpt>
<trkpt lat="30.8614020" lon="34.7650110">
<ele>539.799988</ele>
<time>2014-01-03T07:27:36.000Z</time>
</trkpt>
<trkpt lat="30.8616550" lon="34.7649620">
<ele>539.500000</ele>
<time>2014-01-03T07:27:43.000Z</time>
</trkpt>
<trkpt lat="30.8619060" lon="34.7649410">
<ele>538.799988</ele>
<time>2014-01-03T07:27:49.000Z</time>
</trkpt>
<trkpt lat="30.8620290" lon="34.7649660">
<ele>538.099976</ele>
<time>2014-01-03T07:27:51.000Z</time>
</trkpt>
<trkpt lat="30.8626470" lon="34.7649820">
<ele>534.000000</ele>
<time>2014-01-03T07:28:06.000Z</time>
</trkpt>
<trkpt lat="30.8628830" lon="34.7649400">
<ele>532.799988</ele>
<time>2014-01-03T07:28:13.000Z</time>
</trkpt>
<trkpt lat="30.8631830" lon="34.7647940">
<ele>531.500000</ele>
<time>2014-01-03T07:28:21.000Z</time>
</trkpt>
<trkpt lat="30.8634980" lon="34.7644130">
<ele>530.099976</ele>
<time>2014-01-03T07:28:35.000Z</time>
</trkpt>
<trkpt lat="30.8638110" lon="34.7642310">
<ele>528.700012</ele>
<time>2014-01-03T07:28:44.000Z</time>
</trkpt>
<trkpt lat="30.8640580" lon="34.7642000">
<ele>528.100037</ele>
<time>2014-01-03T07:28:49.000Z</time>
</trkpt>
<trkpt lat="30.8641660" lon="34.7641640">
<ele>528.000000</ele>
<time>2014-01-03T07:28:52.000Z</time>
</trkpt>
<trkpt lat="30.8645050" lon="34.7641420">
<ele>527.000000</ele>
<time>2014-01-03T07:29:00.000Z</time>
</trkpt>
<trkpt lat="30.8649540" lon="34.7639720">
<ele>526.900024</ele>
<time>2014-01-03T07:29:11.000Z</time>
</trkpt>
<trkpt lat="30.8652090" lon="34.7639410">
<ele>526.100037</ele>
<time>2014-01-03T07:29:18.000Z</time>
</trkpt>
<trkpt lat="30.8654400" lon="34.7639770">
<ele>524.700012</ele>
<time>2014-01-03T07:29:23.000Z</time>
</trkpt>
<trkpt lat="30.8658600" lon="34.7641400">
<ele>521.200012</ele>
<time>2014-01-03T07:29:37.000Z</time>
</trkpt>
<trkpt lat="30.8659840" lon="34.7640850">
<ele>521.200012</ele>
<time>2014-01-03T07:29:39.000Z</time>
</trkpt>
<trkpt lat="30.8663170" lon="34.7640020">
<ele>520.400024</ele>
<time>2014-01-03T07:29:47.000Z</time>
</trkpt>
<trkpt lat="30.8664130" lon="34.7639790">
<ele>519.899963</ele>
<time>2014-01-03T07:29:50.000Z</time>
</trkpt>
<trkpt lat="30.8667250" lon="34.7639480">
<ele>517.400024</ele>
<time>2014-01-03T07:30:01.000Z</time>
</trkpt>
<trkpt lat="30.8668130" lon="34.7639040">
<ele>516.899963</ele>
<time>2014-01-03T07:30:04.000Z</time>
</trkpt>
<trkpt lat="30.8668820" lon="34.7638280">
<ele>516.700012</ele>
<time>2014-01-03T07:30:06.000Z</time>
</trkpt>
<trkpt lat="30.8669490" lon="34.7637170">
<ele>516.599976</ele>
<time>2014-01-03T07:30:09.000Z</time>
</trkpt>
<trkpt lat="30.8670210" lon="34.7634690">
<ele>516.700012</ele>
<time>2014-01-03T07:30:14.000Z</time>
</trkpt>
<trkpt lat="30.8671350" lon="34.7632610">
<ele>516.299988</ele>
<time>2014-01-03T07:30:21.000Z</time>
</trkpt>
<trkpt lat="30.8672520" lon="34.7631000">
<ele>515.799988</ele>
<time>2014-01-03T07:30:56.000Z</time>
</trkpt>
<trkpt lat="30.8673240" lon="34.7630300">
<ele>515.299988</ele>
<time>2014-01-03T07:30:59.000Z</time>
</trkpt>
<trkpt lat="30.8675630" lon="34.7629740">
<ele>513.200012</ele>
<time>2014-01-03T07:31:06.000Z</time>
</trkpt>
<trkpt lat="30.8676710" lon="34.7629200">
<ele>512.299988</ele>
<time>2014-01-03T07:31:08.000Z</time>
</trkpt>
<trkpt lat="30.8677450" lon="34.7628430">
<ele>512.500000</ele>
<time>2014-01-03T07:31:11.000Z</time>
</trkpt>
<trkpt lat="30.8678870" lon="34.7624450">
<ele>515.900024</ele>
<time>2014-01-03T07:31:22.000Z</time>
</trkpt>
<trkpt lat="30.8679620" lon="34.7623440">
<ele>516.400024</ele>
<time>2014-01-03T07:31:25.000Z</time>
</trkpt>
<trkpt lat="30.8680640" lon="34.7623310">
<ele>515.500000</ele>
<time>2014-01-03T07:31:26.000Z</time>
</trkpt>
<trkpt lat="30.8681790" lon="34.7622850">
<ele>514.799988</ele>
<time>2014-01-03T07:31:30.000Z</time>
</trkpt>
<trkpt lat="30.8687700" lon="34.7622220">
<ele>509.100006</ele>
<time>2014-01-03T07:31:46.000Z</time>
</trkpt>
<trkpt lat="30.8689730" lon="34.7621530">
<ele>508.500000</ele>
<time>2014-01-03T07:31:52.000Z</time>
</trkpt>
<trkpt lat="30.8691100" lon="34.7621880">
<ele>507.600006</ele>
<time>2014-01-03T07:31:54.000Z</time>
</trkpt>
<trkpt lat="30.8693640" lon="34.7622210">
<ele>506.100006</ele>
<time>2014-01-03T07:32:01.000Z</time>
</trkpt>
<trkpt lat="30.8697510" lon="34.7623560">
<ele>503.799988</ele>
<time>2014-01-03T07:32:09.000Z</time>
</trkpt>
<trkpt lat="30.8701730" lon="34.7626490">
<ele>500.000000</ele>
<time>2014-01-03T07:32:20.000Z</time>
</trkpt>
<trkpt lat="30.8702950" lon="34.7626920">
<ele>499.100006</ele>
<time>2014-01-03T07:32:24.000Z</time>
</trkpt>
<trkpt lat="30.8708620" lon="34.7626740">
<ele>498.400024</ele>
<time>2014-01-03T07:32:39.000Z</time>
</trkpt>
<trkpt lat="30.8710900" lon="34.7626310">
<ele>498.600006</ele>
<time>2014-01-03T07:32:43.000Z</time>
</trkpt>
<trkpt lat="30.8713940" lon="34.7626660">
<ele>497.899994</ele>
<time>2014-01-03T07:32:50.000Z</time>
</trkpt>
<trkpt lat="30.8716260" lon="34.7626640">
<ele>497.599976</ele>
<time>2014-01-03T07:32:54.000Z</time>
</trkpt>
<trkpt lat="30.8720690" lon="34.7626010">
<ele>497.700012</ele>
<time>2014-01-03T07:33:02.000Z</time>
</trkpt>
<trkpt lat="30.8722570" lon="34.7627440">
<ele>496.200012</ele>
<time>2014-01-03T07:33:07.000Z</time>
</trkpt>
<trkpt lat="30.8723890" lon="34.7629550">
<ele>494.899994</ele>
<time>2014-01-03T07:33:14.000Z</time>
</trkpt>
<trkpt lat="30.8724420" lon="34.7633170">
<ele>493.900024</ele>
<time>2014-01-03T07:33:25.000Z</time>
</trkpt>
<trkpt lat="30.8726450" lon="34.7634560">
<ele>493.000000</ele>
<time>2014-01-03T07:33:30.000Z</time>
</trkpt>
<trkpt lat="30.8727760" lon="34.7635030">
<ele>492.500000</ele>
<time>2014-01-03T07:33:34.000Z</time>
</trkpt>
<trkpt lat="30.8728690" lon="34.7634890">
<ele>492.400024</ele>
<time>2014-01-03T07:33:36.000Z</time>
</trkpt>
<trkpt lat="30.8730350" lon="34.7633150">
<ele>492.799988</ele>
<time>2014-01-03T07:33:41.000Z</time>
</trkpt>
<trkpt lat="30.8736000" lon="34.7631910">
<ele>492.299988</ele>
<time>2014-01-03T07:33:56.000Z</time>
</trkpt>
<trkpt lat="30.8737000" lon="34.7632060">
<ele>492.000000</ele>
<time>2014-01-03T07:33:59.000Z</time>
</trkpt>
<trkpt lat="30.8737850" lon="34.7632880">
<ele>491.200012</ele>
<time>2014-01-03T07:34:03.000Z</time>
</trkpt>
<trkpt lat="30.8737600" lon="34.7634210">
<ele>490.300018</ele>
<time>2014-01-03T07:34:07.000Z</time>
</trkpt>
<trkpt lat="30.8737850" lon="34.7635310">
<ele>489.499969</ele>
<time>2014-01-03T07:34:11.000Z</time>
</trkpt>
<trkpt lat="30.8739080" lon="34.7637200">
<ele>487.799988</ele>
<time>2014-01-03T07:34:17.000Z</time>
</trkpt>
<trkpt lat="30.8739400" lon="34.7638180">
<ele>487.300018</ele>
<time>2014-01-03T07:34:20.000Z</time>
</trkpt>
<trkpt lat="30.8740470" lon="34.7639000">
<ele>486.700012</ele>
<time>2014-01-03T07:34:24.000Z</time>
</trkpt>
<trkpt lat="30.8741680" lon="34.7639320">
<ele>486.299988</ele>
<time>2014-01-03T07:34:28.000Z</time>
</trkpt>
<trkpt lat="30.8742950" lon="34.7639180">
<ele>486.100006</ele>
<time>2014-01-03T07:34:31.000Z</time>
</trkpt>
<trkpt lat="30.8746690" lon="34.7638130">
<ele>485.600006</ele>
<time>2014-01-03T07:34:39.000Z</time>
</trkpt>
<trkpt lat="30.8747750" lon="34.7638130">
<ele>485.399994</ele>
<time>2014-01-03T07:34:42.000Z</time>
</trkpt>
<trkpt lat="30.8751650" lon="34.7642510">
<ele>483.399994</ele>
<time>2014-01-03T07:34:58.000Z</time>
</trkpt>
<trkpt lat="30.8752140" lon="34.7643640">
<ele>483.000000</ele>
<time>2014-01-03T07:35:01.000Z</time>
</trkpt>
<trkpt lat="30.8753100" lon="34.7647430">
<ele>482.099976</ele>
<time>2014-01-03T07:35:09.000Z</time>
</trkpt>
<trkpt lat="30.8753580" lon="34.7648490">
<ele>481.700012</ele>
<time>2014-01-03T07:35:10.000Z</time>
</trkpt>
<trkpt lat="30.8755720" lon="34.7651160">
<ele>480.599976</ele>
<time>2014-01-03T07:35:20.000Z</time>
</trkpt>
<trkpt lat="30.8756160" lon="34.7652700">
<ele>480.000000</ele>
<time>2014-01-03T07:35:22.000Z</time>
</trkpt>
<trkpt lat="30.8756120" lon="34.7653830">
<ele>479.600006</ele>
<time>2014-01-03T07:35:25.000Z</time>
</trkpt>
<trkpt lat="30.8756410" lon="34.7654820">
<ele>479.399994</ele>
<time>2014-01-03T07:35:26.000Z</time>
</trkpt>
<trkpt lat="30.8757750" lon="34.7656700">
<ele>478.700012</ele>
<time>2014-01-03T07:35:33.000Z</time>
</trkpt>
<trkpt lat="30.8758510" lon="34.7657340">
<ele>478.399994</ele>
<time>2014-01-03T07:35:34.000Z</time>
</trkpt>
<trkpt lat="30.8761700" lon="34.7658600">
<ele>476.699982</ele>
<time>2014-01-03T07:35:41.000Z</time>
</trkpt>
<trkpt lat="30.8765220" lon="34.7661180">
<ele>475.500031</ele>
<time>2014-01-03T07:35:53.000Z</time>
</trkpt>
<trkpt lat="30.8765300" lon="34.7660100">
<ele>476.000000</ele>
<time>2014-01-03T07:36:04.000Z</time>
</trkpt>
<trkpt lat="30.8764400" lon="34.7660370">
<ele>475.800018</ele>
<time>2014-01-03T07:36:54.000Z</time>
</trkpt>
<trkpt lat="30.8766130" lon="34.7662640">
<ele>475.100006</ele>
<time>2014-01-03T07:38:37.000Z</time>
</trkpt>
<trkpt lat="30.8769510" lon="34.7665450">
<ele>475.899994</ele>
<time>2014-01-03T07:38:49.000Z</time>
</trkpt>
<trkpt lat="30.8769990" lon="34.7666560">
<ele>475.899994</ele>
<time>2014-01-03T07:38:51.000Z</time>
</trkpt>
<trkpt lat="30.8770350" lon="34.7668160">
<ele>476.000000</ele>
<time>2014-01-03T07:38:54.000Z</time>
</trkpt>
<trkpt lat="30.8771280" lon="34.7670080">
<ele>475.899994</ele>
<time>2014-01-03T07:38:58.000Z</time>
</trkpt>
<trkpt lat="30.8771350" lon="34.7672600">
<ele>476.999969</ele>
<time>2014-01-03T07:39:05.000Z</time>
</trkpt>
<trkpt lat="30.8771210" lon="34.7673660">
<ele>477.699982</ele>
<time>2014-01-03T07:39:12.000Z</time>
</trkpt>
<trkpt lat="30.8771320" lon="34.7674910">
<ele>478.399994</ele>
<time>2014-01-03T07:39:16.000Z</time>
</trkpt>
<trkpt lat="30.8771950" lon="34.7675910">
<ele>478.899994</ele>
<time>2014-01-03T07:39:20.000Z</time>
</trkpt>
<trkpt lat="30.8776130" lon="34.7679100">
<ele>480.299988</ele>
<time>2014-01-03T07:39:36.000Z</time>
</trkpt>
<trkpt lat="30.8777320" lon="34.7679480">
<ele>480.399994</ele>
<time>2014-01-03T07:39:40.000Z</time>
</trkpt>
<trkpt lat="30.8778560" lon="34.7679310">
<ele>480.200012</ele>
<time>2014-01-03T07:39:44.000Z</time>
</trkpt>
<trkpt lat="30.8780490" lon="34.7678490">
<ele>480.299988</ele>
<time>2014-01-03T07:39:51.000Z</time>
</trkpt>
<trkpt lat="30.8783540" lon="34.7679320">
<ele>482.099976</ele>
<time>2014-01-03T07:40:02.000Z</time>
</trkpt>
<trkpt lat="30.8786290" lon="34.7682580">
<ele>483.399994</ele>
<time>2014-01-03T07:40:15.000Z</time>
</trkpt>
<trkpt lat="30.8787320" lon="34.7683290">
<ele>483.500000</ele>
<time>2014-01-03T07:40:19.000Z</time>
</trkpt>
<trkpt lat="30.8789290" lon="34.7683990">
<ele>484.400024</ele>
<time>2014-01-03T07:40:26.000Z</time>
</trkpt>
<trkpt lat="30.8790780" lon="34.7684000">
<ele>485.200012</ele>
<time>2014-01-03T07:41:06.000Z</time>
</trkpt>
<trkpt lat="30.8791810" lon="34.7683770">
<ele>485.699982</ele>
<time>2014-01-03T07:41:13.000Z</time>
</trkpt>
<trkpt lat="30.8792580" lon="34.7684180">
<ele>486.100006</ele>
<time>2014-01-03T07:42:09.000Z</time>
</trkpt>
<trkpt lat="30.8794510" lon="34.7684750">
<ele>487.000000</ele>
<time>2014-01-03T07:42:15.000Z</time>
</trkpt>
<trkpt lat="30.8797080" lon="34.7686350">
<ele>487.899994</ele>
<time>2014-01-03T07:42:25.000Z</time>
</trkpt>
<trkpt lat="30.8797930" lon="34.7686890">
<ele>488.300018</ele>
<time>2014-01-03T07:42:27.000Z</time>
</trkpt>
<trkpt lat="30.8801270" lon="34.7691380">
<ele>490.600006</ele>
<time>2014-01-03T07:42:45.000Z</time>
</trkpt>
<trkpt lat="30.8803740" lon="34.7693490">
<ele>491.200012</ele>
<time>2014-01-03T07:43:04.000Z</time>
</trkpt>
<trkpt lat="30.8804880" lon="34.7695190">
<ele>491.100006</ele>
<time>2014-01-03T07:43:20.000Z</time>
</trkpt>
<trkpt lat="30.8805030" lon="34.7695880">
<ele>491.100006</ele>
<time>2014-01-03T07:43:30.000Z</time>
</trkpt>
<trkpt lat="30.8807060" lon="34.7697550">
<ele>492.000000</ele>
<time>2014-01-03T07:44:40.000Z</time>
</trkpt>
<trkpt lat="30.8808660" lon="34.7699890">
<ele>493.300018</ele>
<time>2014-01-03T07:45:12.000Z</time>
</trkpt>
<trkpt lat="30.8809430" lon="34.7702020">
<ele>494.299988</ele>
<time>2014-01-03T07:45:22.000Z</time>
</trkpt>
<trkpt lat="30.8810720" lon="34.7703850">
<ele>495.400024</ele>
<time>2014-01-03T07:45:31.000Z</time>
</trkpt>
<trkpt lat="30.8813960" lon="34.7701350">
<ele>494.700012</ele>
<time>2014-01-03T07:45:51.000Z</time>
</trkpt>
<trkpt lat="30.8814840" lon="34.7700940">
<ele>494.500000</ele>
<time>2014-01-03T07:45:57.000Z</time>
</trkpt>
<trkpt lat="30.8814920" lon="34.7701160">
<ele>494.599976</ele>
<time>2014-01-03T07:46:37.000Z</time>
</trkpt>
<trkpt lat="30.8814620" lon="34.7699620">
<ele>494.000000</ele>
<time>2014-01-03T07:47:11.000Z</time>
</trkpt>
<trkpt lat="30.8814960" lon="34.7700040">
<ele>494.200012</ele>
<time>2014-01-03T07:47:34.000Z</time>
</trkpt>
<trkpt lat="30.8814790" lon="34.7701100">
<ele>494.599976</ele>
<time>2014-01-03T07:47:43.000Z</time>
</trkpt>
<trkpt lat="30.8815390" lon="34.7700790">
<ele>494.500000</ele>
<time>2014-01-03T07:48:41.000Z</time>
</trkpt>
<trkpt lat="30.8817690" lon="34.7700550">
<ele>494.500000</ele>
<time>2014-01-03T07:48:50.000Z</time>
</trkpt>
<trkpt lat="30.8820070" lon="34.7700610">
<ele>494.500000</ele>
<time>2014-01-03T07:48:55.000Z</time>
</trkpt>
<trkpt lat="30.8825020" lon="34.7702470">
<ele>492.000000</ele>
<time>2014-01-03T07:49:06.000Z</time>
</trkpt>
<trkpt lat="30.8828220" lon="34.7703280">
<ele>489.799988</ele>
<time>2014-01-03T07:49:11.000Z</time>
</trkpt>
<trkpt lat="30.8829100" lon="34.7703740">
<ele>489.100006</ele>
<time>2014-01-03T07:49:14.000Z</time>
</trkpt>
<trkpt lat="30.8830960" lon="34.7705240">
<ele>487.500000</ele>
<time>2014-01-03T07:49:19.000Z</time>
</trkpt>
<trkpt lat="30.8834190" lon="34.7709420">
<ele>484.299988</ele>
<time>2014-01-03T07:49:26.000Z</time>
</trkpt>
<trkpt lat="30.8835940" lon="34.7710900">
<ele>483.500000</ele>
<time>2014-01-03T07:49:31.000Z</time>
</trkpt>
<trkpt lat="30.8837130" lon="34.7711300">
<ele>483.299988</ele>
<time>2014-01-03T07:49:35.000Z</time>
</trkpt>
<trkpt lat="30.8839260" lon="34.7711570">
<ele>483.100006</ele>
<time>2014-01-03T07:49:42.000Z</time>
</trkpt>
<trkpt lat="30.8841560" lon="34.7711100">
<ele>483.000000</ele>
<time>2014-01-03T07:49:46.000Z</time>
</trkpt>
<trkpt lat="30.8846730" lon="34.7708380">
<ele>481.600006</ele>
<time>2014-01-03T07:49:57.000Z</time>
</trkpt>
<trkpt lat="30.8848020" lon="34.7708130">
<ele>481.000000</ele>
<time>2014-01-03T07:49:58.000Z</time>
</trkpt>
<trkpt lat="30.8851540" lon="34.7708230">
<ele>479.600006</ele>
<time>2014-01-03T07:50:06.000Z</time>
</trkpt>
<trkpt lat="30.8851050" lon="34.7707220">
<ele>479.500000</ele>
<time>2014-01-03T07:50:16.000Z</time>
</trkpt>
<trkpt lat="30.8851200" lon="34.7706490">
<ele>479.199982</ele>
<time>2014-01-03T07:50:25.000Z</time>
</trkpt>
<trkpt lat="30.8852090" lon="34.7706100">
<ele>478.600006</ele>
<time>2014-01-03T07:50:32.000Z</time>
</trkpt>
<trkpt lat="30.8855160" lon="34.7709510">
<ele>478.499969</ele>
<time>2014-01-03T07:50:51.000Z</time>
</trkpt>
<trkpt lat="30.8855620" lon="34.7710570">
<ele>478.600006</ele>
<time>2014-01-03T07:50:55.000Z</time>
</trkpt>
<trkpt lat="30.8855660" lon="34.7711640">
<ele>479.000000</ele>
<time>2014-01-03T07:50:58.000Z</time>
</trkpt>
<trkpt lat="30.8855190" lon="34.7712550">
<ele>479.500000</ele>
<time>2014-01-03T07:51:00.000Z</time>
</trkpt>
<trkpt lat="30.8853310" lon="34.7713480">
<ele>479.699982</ele>
<time>2014-01-03T07:51:07.000Z</time>
</trkpt>
<trkpt lat="30.8849880" lon="34.7713360">
<ele>480.899994</ele>
<time>2014-01-03T07:51:17.000Z</time>
</trkpt>
<trkpt lat="30.8848940" lon="34.7713600">
<ele>481.100006</ele>
<time>2014-01-03T07:51:19.000Z</time>
</trkpt>
<trkpt lat="30.8848500" lon="34.7714580">
<ele>480.500000</ele>
<time>2014-01-03T07:51:23.000Z</time>
</trkpt>
<trkpt lat="30.8848440" lon="34.7715700">
<ele>479.600006</ele>
<time>2014-01-03T07:51:26.000Z</time>
</trkpt>
<trkpt lat="30.8847780" lon="34.7716720">
<ele>479.000000</ele>
<time>2014-01-03T07:51:30.000Z</time>
</trkpt>
<trkpt lat="30.8845800" lon="34.7716500">
<ele>479.600006</ele>
<time>2014-01-03T07:51:37.000Z</time>
</trkpt>
<trkpt lat="30.8844860" lon="34.7716620">
<ele>479.500000</ele>
<time>2014-01-03T07:51:44.000Z</time>
</trkpt>
<trkpt lat="30.8842890" lon="34.7717500">
<ele>478.799988</ele>
<time>2014-01-03T07:51:57.000Z</time>
</trkpt>
<trkpt lat="30.8841240" lon="34.7718660">
<ele>477.800018</ele>
<time>2014-01-03T07:52:05.000Z</time>
</trkpt>
<trkpt lat="30.8839040" lon="34.7721220">
<ele>475.800018</ele>
<time>2014-01-03T07:52:19.000Z</time>
</trkpt>
<trkpt lat="30.8837120" lon="34.7722640">
<ele>475.299988</ele>
<time>2014-01-03T07:52:27.000Z</time>
</trkpt>
<trkpt lat="30.8835660" lon="34.7724200">
<ele>475.700012</ele>
<time>2014-01-03T07:52:32.000Z</time>
</trkpt>
<trkpt lat="30.8835870" lon="34.7725220">
<ele>475.200012</ele>
<time>2014-01-03T07:52:38.000Z</time>
</trkpt>
<trkpt lat="30.8836770" lon="34.7726110">
<ele>474.100006</ele>
<time>2014-01-03T07:52:42.000Z</time>
</trkpt>
<trkpt lat="30.8837570" lon="34.7728500">
<ele>472.299988</ele>
<time>2014-01-03T07:52:48.000Z</time>
</trkpt>
<trkpt lat="30.8838910" lon="34.7730980">
<ele>471.600006</ele>
<time>2014-01-03T07:52:55.000Z</time>
</trkpt>
<trkpt lat="30.8839450" lon="34.7731830">
<ele>471.399994</ele>
<time>2014-01-03T07:52:57.000Z</time>
</trkpt>
<trkpt lat="30.8841010" lon="34.7733280">
<ele>470.500000</ele>
<time>2014-01-03T07:53:01.000Z</time>
</trkpt>
<trkpt lat="30.8841850" lon="34.7733840">
<ele>469.899994</ele>
<time>2014-01-03T07:53:02.000Z</time>
</trkpt>
<trkpt lat="30.8843790" lon="34.7734680">
<ele>468.300018</ele>
<time>2014-01-03T07:53:06.000Z</time>
</trkpt>
<trkpt lat="30.8844830" lon="34.7734790">
<ele>467.500000</ele>
<time>2014-01-03T07:53:09.000Z</time>
</trkpt>
<trkpt lat="30.8845990" lon="34.7734520">
<ele>466.699982</ele>
<time>2014-01-03T07:53:10.000Z</time>
</trkpt>
<trkpt lat="30.8848000" lon="34.7734440">
<ele>466.100006</ele>
<time>2014-01-03T07:53:14.000Z</time>
</trkpt>
<trkpt lat="30.8849140" lon="34.7734950">
<ele>465.500000</ele>
<time>2014-01-03T07:53:17.000Z</time>
</trkpt>
<trkpt lat="30.8851610" lon="34.7737320">
<ele>463.300018</ele>
<time>2014-01-03T07:53:22.000Z</time>
</trkpt>
<trkpt lat="30.8852200" lon="34.7738470">
<ele>462.500000</ele>
<time>2014-01-03T07:53:25.000Z</time>
</trkpt>
<trkpt lat="30.8852640" lon="34.7739700">
<ele>461.600006</ele>
<time>2014-01-03T07:53:26.000Z</time>
</trkpt>
<trkpt lat="30.8853290" lon="34.7742660">
<ele>459.899994</ele>
<time>2014-01-03T07:53:30.000Z</time>
</trkpt>
<trkpt lat="30.8853790" lon="34.7744030">
<ele>459.000000</ele>
<time>2014-01-03T07:53:33.000Z</time>
</trkpt>
<trkpt lat="30.8853920" lon="34.7747910">
<ele>457.099976</ele>
<time>2014-01-03T07:53:38.000Z</time>
</trkpt>
<trkpt lat="30.8853750" lon="34.7749930">
<ele>456.199982</ele>
<time>2014-01-03T07:53:45.000Z</time>
</trkpt>
<trkpt lat="30.8853801" lon="34.7757293">
<ele>455.399994</ele>
<time>2014-01-03T07:53:49.000Z</time>
</trkpt>
<trkpt lat="30.8864482" lon="34.7754289">
<time>2015-03-03T17:35:25.029Z</time>
</trkpt>
<trkpt lat="30.8882384" lon="34.7756435">
<time>2015-03-03T17:36:19.777Z</time>
</trkpt>
<trkpt lat="30.8890262" lon="34.7757937">
<time>2015-03-03T17:35:22.884Z</time>
</trkpt>
<trkpt lat="30.8899101" lon="34.7755362">
<ele>462.600006</ele>
<time>2015-03-03T10:03:11.000Z</time>
</trkpt>
<trkpt lat="30.8902933" lon="34.7757078">
<time>2015-03-03T17:36:11.993Z</time>
</trkpt>
<trkpt lat="30.8915379" lon="34.7756006">
<ele>462.799988</ele>
<time>2015-03-03T10:45:40.000Z</time>
</trkpt>
<trkpt lat="30.8937734" lon="34.7749354">
<ele>462.899994</ele>
<time>2015-03-03T10:03:12.000Z</time>
</trkpt>
<trkpt lat="30.8956332" lon="34.7739698">
<ele>450.800018</ele>
<time>2015-03-03T10:45:35.000Z</time>
</trkpt>
<trkpt lat="30.8965170" lon="34.7732188">
<time>2015-03-03T17:36:02.512Z</time>
</trkpt>
<trkpt lat="30.8972167" lon="34.7726609">
<ele>451.099976</ele>
<time>2015-03-03T10:03:13.000Z</time>
</trkpt>
<trkpt lat="30.8973271" lon="34.7722961">
<ele>449.900024</ele>
<time>2015-03-03T10:45:19.000Z</time>
</trkpt>
<trkpt lat="30.8996620" lon="34.7714900">
<ele>445.899994</ele>
<time>2015-03-03T10:45:15.000Z</time>
</trkpt>
<trkpt lat="30.9011560" lon="34.7710020">
<ele>446.200012</ele>
<time>2015-03-03T10:45:13.000Z</time>
</trkpt>
<trkpt lat="30.9016070" lon="34.7707880">
<ele>447.100006</ele>
<time>2015-03-03T10:45:12.000Z</time>
</trkpt>
<trkpt lat="30.9021950" lon="34.7706910">
<ele>447.599976</ele>
<time>2015-03-03T10:03:15.000Z</time>
</trkpt>
<trkpt lat="30.9062730" lon="34.7724130">
<ele>452.800018</ele>
<time>2015-03-03T10:03:17.000Z</time>
</trkpt>
<trkpt lat="30.9061530" lon="34.7726220">
<ele>453.499969</ele>
<time>2015-03-03T10:44:59.000Z</time>
</trkpt>
<trkpt lat="30.9061900" lon="34.7729170">
<ele>454.200012</ele>
<time>2015-03-03T10:03:18.000Z</time>
</trkpt>
<trkpt lat="30.9063460" lon="34.7731700">
<ele>454.399994</ele>
<time>2015-03-03T10:45:00.000Z</time>
</trkpt>
<trkpt lat="30.9065210" lon="34.7737220">
<ele>455.299988</ele>
<time>2015-03-03T10:45:03.000Z</time>
</trkpt>
<trkpt lat="30.9067650" lon="34.7740330">
<ele>455.399994</ele>
<time>2015-03-03T10:45:01.000Z</time>
</trkpt>
<trkpt lat="30.9069200" lon="34.7745370">
<ele>456.299988</ele>
<time>2015-03-03T10:03:26.000Z</time>
</trkpt>
<trkpt lat="30.9074530" lon="34.7754760">
<ele>460.500000</ele>
<time>2015-03-03T10:03:26.000Z</time>
</trkpt>
<trkpt lat="30.9074440" lon="34.7759860">
<ele>463.000031</ele>
<time>2015-03-03T10:03:27.000Z</time>
</trkpt>
<trkpt lat="30.9083000" lon="34.7772030">
<ele>461.700012</ele>
<time>2015-03-03T10:03:28.000Z</time>
</trkpt>
<trkpt lat="30.9085160" lon="34.7777350">
<ele>462.199982</ele>
<time>2015-03-03T10:44:39.000Z</time>
</trkpt>
<trkpt lat="30.9088570" lon="34.7780560">
<ele>461.399994</ele>
<time>2015-03-03T10:44:42.000Z</time>
</trkpt>
<trkpt lat="30.9089430" lon="34.7783940">
<ele>462.500000</ele>
<time>2015-03-03T10:03:29.000Z</time>
</trkpt>
<trkpt lat="30.9083840" lon="34.7794560">
<ele>468.600006</ele>
<time>2015-03-03T10:03:30.000Z</time>
</trkpt>
<trkpt lat="30.9083620" lon="34.7809410">
<ele>468.600006</ele>
<time>2015-03-03T10:03:31.000Z</time>
</trkpt>
<trkpt lat="30.9054410" lon="34.7827540">
<ele>478.000000</ele>
<time>2015-03-03T10:03:33.000Z</time>
</trkpt>
<trkpt lat="30.9051760" lon="34.7829000">
<ele>479.300018</ele>
<time>2015-03-03T10:43:30.000Z</time>
</trkpt>
<trkpt lat="30.9051890" lon="34.7833560">
<ele>477.500000</ele>
<time>2015-03-03T10:43:29.000Z</time>
</trkpt>
<trkpt lat="30.9047700" lon="34.7837860">
<ele>479.000000</ele>
<time>2015-03-03T10:03:34.000Z</time>
</trkpt>
<trkpt lat="30.9047390" lon="34.7841020">
<ele>480.700012</ele>
<time>2015-03-03T10:43:25.000Z</time>
</trkpt>
<trkpt lat="30.9043870" lon="34.7849770">
<ele>485.699982</ele>
<time>2015-03-03T10:43:27.000Z</time>
</trkpt>
<trkpt lat="30.9044830" lon="34.7852610">
<ele>483.700012</ele>
<time>2015-03-03T10:03:36.000Z</time>
</trkpt>
<trkpt lat="30.9042390" lon="34.7856520">
<ele>485.600006</ele>
<time>2015-03-03T10:43:21.000Z</time>
</trkpt>
<trkpt lat="30.9039490" lon="34.7859310">
<ele>486.899994</ele>
<time>2015-03-03T10:03:36.000Z</time>
</trkpt>
<trkpt lat="30.9035880" lon="34.7863230">
<ele>487.500000</ele>
<time>2015-03-03T10:03:37.000Z</time>
</trkpt>
<trkpt lat="30.9038600" lon="34.7877180">
<ele>487.799988</ele>
<time>2015-03-03T10:03:39.000Z</time>
</trkpt>
<trkpt lat="30.9038940" lon="34.7881900">
<ele>489.299988</ele>
<time>2015-03-03T10:43:12.000Z</time>
</trkpt>
<trkpt lat="30.9038240" lon="34.7886350">
<ele>491.299988</ele>
<time>2015-03-03T10:03:40.000Z</time>
</trkpt>
<trkpt lat="30.9038910" lon="34.7892000">
<ele>493.099976</ele>
<time>2015-03-03T10:03:41.000Z</time>
</trkpt>
<trkpt lat="30.9037620" lon="34.7897720">
<ele>495.000000</ele>
<time>2015-03-03T10:03:42.000Z</time>
</trkpt>
<trkpt lat="30.9036100" lon="34.7906410">
<ele>494.000000</ele>
<time>2015-03-03T10:03:43.000Z</time>
</trkpt>
<trkpt lat="30.9045050" lon="34.7913120">
<ele>488.600006</ele>
<time>2015-03-03T10:03:47.000Z</time>
</trkpt>
<trkpt lat="30.9048180" lon="34.7919560">
<ele>492.100006</ele>
<time>2015-03-03T10:42:56.000Z</time>
</trkpt>
<trkpt lat="30.9050670" lon="34.7922080">
<ele>492.899994</ele>
<time>2015-03-03T10:03:49.000Z</time>
</trkpt>
<trkpt lat="30.9049430" lon="34.7928890">
<ele>495.899994</ele>
<time>2015-03-03T10:03:50.000Z</time>
</trkpt>
<trkpt lat="30.9049500" lon="34.7937530">
<ele>497.500000</ele>
<time>2015-03-03T10:42:49.000Z</time>
</trkpt>
<trkpt lat="30.9048440" lon="34.7938760">
<ele>499.100006</ele>
<time>2015-03-03T10:03:52.000Z</time>
</trkpt>
<trkpt lat="30.9047570" lon="34.7942410">
<ele>502.100006</ele>
<time>2015-03-03T10:03:52.000Z</time>
</trkpt>
<trkpt lat="30.9049410" lon="34.7949380">
<ele>501.100006</ele>
<time>2015-03-03T10:03:53.000Z</time>
</trkpt>
<trkpt lat="30.9048290" lon="34.7955340">
<ele>502.800018</ele>
<time>2015-03-03T10:42:34.000Z</time>
</trkpt>
<trkpt lat="30.9046680" lon="34.7957270">
<ele>504.199982</ele>
<time>2015-03-03T10:03:54.000Z</time>
</trkpt>
<trkpt lat="30.9039790" lon="34.7958770">
<ele>509.199982</ele>
<time>2015-03-03T10:03:54.000Z</time>
</trkpt>
<trkpt lat="30.9034940" lon="34.7957800">
<ele>512.599976</ele>
<time>2015-03-03T10:03:55.000Z</time>
</trkpt>
<trkpt lat="30.9029600" lon="34.7957110">
<ele>512.500000</ele>
<time>2015-03-03T10:03:56.000Z</time>
</trkpt>
<trkpt lat="30.9021640" lon="34.7956890">
<ele>519.700012</ele>
<time>2015-03-03T10:03:57.000Z</time>
</trkpt>
<trkpt lat="30.9018440" lon="34.7957910">
<ele>525.299988</ele>
<time>2015-03-03T10:42:37.000Z</time>
</trkpt>
<trkpt lat="30.9014950" lon="34.7962650">
<ele>525.700012</ele>
<time>2015-03-03T10:03:58.000Z</time>
</trkpt>
<trkpt lat="30.9012830" lon="34.7970400">
<ele>513.700012</ele>
<time>2015-03-03T10:03:59.000Z</time>
</trkpt>
<trkpt lat="30.9009930" lon="34.7975930">
<ele>513.099976</ele>
<time>2015-03-03T10:03:59.000Z</time>
</trkpt>
<trkpt lat="30.9002560" lon="34.7980870">
<ele>516.000000</ele>
<time>2015-03-03T10:04:00.000Z</time>
</trkpt>
<trkpt lat="30.9002140" lon="34.7984200">
<ele>515.500000</ele>
<time>2015-03-03T10:04:01.000Z</time>
</trkpt>
<trkpt lat="30.9000680" lon="34.7985690">
<ele>515.799988</ele>
<time>2015-03-03T11:55:57.000Z</time>
</trkpt>
<trkpt lat="30.8999150" lon="34.7985330">
<ele>516.700012</ele>
<time>2015-03-03T10:41:33.000Z</time>
</trkpt>
<trkpt lat="30.8996250" lon="34.7985000">
<ele>518.299988</ele>
<time>2015-03-03T10:41:34.000Z</time>
</trkpt>
<trkpt lat="30.8992190" lon="34.7982480">
<ele>522.799988</ele>
<time>2015-03-03T10:04:03.000Z</time>
</trkpt>
<trkpt lat="30.8989310" lon="34.7983610">
<ele>523.400024</ele>
<time>2015-03-03T10:38:53.000Z</time>
</trkpt>
<trkpt lat="30.8988420" lon="34.7984770">
<ele>522.200012</ele>
<time>2015-03-03T10:04:04.000Z</time>
</trkpt>
<trkpt lat="30.8987060" lon="34.7986400">
<ele>520.500000</ele>
<time>2015-03-03T10:40:51.000Z</time>
</trkpt>
<trkpt lat="30.8987980" lon="34.7988440">
<ele>518.000000</ele>
<time>2015-03-03T10:40:53.000Z</time>
</trkpt>
<trkpt lat="30.8987750" lon="34.7989620">
<ele>518.000000</ele>
<time>2015-03-03T10:04:06.000Z</time>
</trkpt>
<trkpt lat="30.8981260" lon="34.7993000">
<ele>523.299988</ele>
<time>2015-03-03T10:04:07.000Z</time>
</trkpt>
<trkpt lat="30.8973200" lon="34.7992780">
<ele>528.500000</ele>
<time>2015-03-03T10:04:07.000Z</time>
</trkpt>
<trkpt lat="30.8971500" lon="34.7992730">
<ele>529.500000</ele>
<time>2015-03-03T10:40:35.000Z</time>
</trkpt>
<trkpt lat="30.8968830" lon="34.7993600">
<ele>529.099976</ele>
<time>2015-03-03T10:04:08.000Z</time>
</trkpt>
<trkpt lat="30.8963690" lon="34.7995360">
<ele>528.900024</ele>
<time>2015-03-03T10:04:09.000Z</time>
</trkpt>
<trkpt lat="30.8958340" lon="34.8000880">
<ele>529.399963</ele>
<time>2015-03-03T10:04:10.000Z</time>
</trkpt>
<trkpt lat="30.8958960" lon="34.8006350">
<ele>528.299988</ele>
<time>2015-03-03T10:04:11.000Z</time>
</trkpt>
<trkpt lat="30.8958490" lon="34.8007430">
<ele>528.500000</ele>
<time>2014-01-03T08:27:53.000Z</time>
</trkpt>
<trkpt lat="30.8960510" lon="34.8008020">
<ele>527.200012</ele>
<time>2014-01-03T08:29:24.000Z</time>
</trkpt>
<trkpt lat="30.8961430" lon="34.8008580">
<ele>526.700012</ele>
<time>2014-01-03T08:48:04.000Z</time>
</trkpt>
<trkpt lat="30.8962130" lon="34.8009480">
<ele>526.500000</ele>
<time>2014-01-03T08:48:11.000Z</time>
</trkpt>
<trkpt lat="30.8959470" lon="34.8011450">
<ele>527.799988</ele>
<time>2014-01-03T08:48:23.000Z</time>
</trkpt>
<trkpt lat="30.8958440" lon="34.8011680">
<ele>528.100037</ele>
<time>2014-01-03T08:48:27.000Z</time>
</trkpt>
<trkpt lat="30.8953270" lon="34.8011550">
<ele>529.700012</ele>
<time>2014-01-03T08:48:43.000Z</time>
</trkpt>
<trkpt lat="30.8946600" lon="34.8008440">
<ele>534.500000</ele>
<time>2014-01-03T08:49:08.000Z</time>
</trkpt>
<trkpt lat="30.8945600" lon="34.8008630">
<ele>534.799988</ele>
<time>2014-01-03T08:49:10.000Z</time>
</trkpt>
<trkpt lat="30.8943090" lon="34.8010680">
<ele>534.200012</ele>
<time>2014-01-03T08:49:21.000Z</time>
</trkpt>
<trkpt lat="30.8942190" lon="34.8010740">
<ele>534.700012</ele>
<time>2014-01-03T08:49:24.000Z</time>
</trkpt>
<trkpt lat="30.8940780" lon="34.8009880">
<ele>535.799988</ele>
<time>2014-01-03T08:49:37.000Z</time>
</trkpt>
<trkpt lat="30.8941430" lon="34.8015300">
<ele>535.200012</ele>
<time>2014-01-03T08:49:49.000Z</time>
</trkpt>
<trkpt lat="30.8944970" lon="34.8017770">
<ele>534.000000</ele>
<time>2014-01-03T08:50:02.000Z</time>
</trkpt>
<trkpt lat="30.8947780" lon="34.8018950">
<ele>533.299988</ele>
<time>2014-01-03T08:50:08.000Z</time>
</trkpt>
<trkpt lat="30.8948740" lon="34.8020230">
<ele>533.400024</ele>
<time>2014-01-03T08:50:16.000Z</time>
</trkpt>
<trkpt lat="30.8949300" lon="34.8024630">
<ele>535.600037</ele>
<time>2014-01-03T08:50:23.000Z</time>
</trkpt>
<trkpt lat="30.8948790" lon="34.8028120">
<ele>538.200012</ele>
<time>2014-01-03T08:50:31.000Z</time>
</trkpt>
<trkpt lat="30.8948280" lon="34.8030050">
<ele>539.599976</ele>
<time>2014-01-03T08:50:38.000Z</time>
</trkpt>
<trkpt lat="30.8948610" lon="34.8032300">
<ele>540.000000</ele>
<time>2014-01-03T08:50:46.000Z</time>
</trkpt>
<trkpt lat="30.8949480" lon="34.8036810">
<ele>540.399963</ele>
<time>2014-01-03T08:51:01.000Z</time>
</trkpt>
<trkpt lat="30.8949300" lon="34.8038960">
<ele>540.600037</ele>
<time>2014-01-03T08:51:09.000Z</time>
</trkpt>
<trkpt lat="30.8950490" lon="34.8040730">
<ele>539.400024</ele>
<time>2014-01-03T08:51:14.000Z</time>
</trkpt>
<trkpt lat="30.8952430" lon="34.8045500">
<ele>539.099976</ele>
<time>2014-01-03T08:51:21.000Z</time>
</trkpt>
<trkpt lat="30.8952380" lon="34.8050540">
<ele>542.000000</ele>
<time>2014-01-03T08:53:40.000Z</time>
</trkpt>
<trkpt lat="30.8951740" lon="34.8055480">
<ele>544.899963</ele>
<time>2014-01-03T08:53:44.000Z</time>
</trkpt>
<trkpt lat="30.8950910" lon="34.8061760">
<ele>547.799988</ele>
<time>2014-01-03T08:53:52.000Z</time>
</trkpt>
<trkpt lat="30.8950950" lon="34.8065240">
<ele>549.000000</ele>
<time>2014-01-03T08:53:59.000Z</time>
</trkpt>
<trkpt lat="30.8952280" lon="34.8069800">
<ele>549.200012</ele>
<time>2014-01-03T08:54:10.000Z</time>
</trkpt>
<trkpt lat="30.8967300" lon="34.8095660">
<ele>551.000000</ele>
<time>2014-01-03T08:54:22.000Z</time>
</trkpt>
<trkpt lat="30.8970800" lon="34.8097160">
<ele>547.000000</ele>
<time>2014-01-03T08:54:34.000Z</time>
</trkpt>
<trkpt lat="30.8973650" lon="34.8096840">
<ele>547.899963</ele>
<time>2014-01-03T08:54:41.000Z</time>
</trkpt>
<trkpt lat="30.8978380" lon="34.8094370">
<ele>550.599976</ele>
<time>2014-01-03T08:54:45.000Z</time>
</trkpt>
<trkpt lat="30.8981090" lon="34.8094160">
<ele>551.299988</ele>
<time>2014-01-03T08:54:52.000Z</time>
</trkpt>
<trkpt lat="30.8984800" lon="34.8096950">
<ele>550.099976</ele>
<time>2014-01-03T08:55:01.000Z</time>
</trkpt>
<trkpt lat="30.8986040" lon="34.8099520">
<ele>550.400024</ele>
<time>2015-03-03T11:54:29.000Z</time>
</trkpt>
<trkpt lat="30.8995610" lon="34.8100810">
<ele>553.700012</ele>
<time>2015-03-03T11:54:27.000Z</time>
</trkpt>
<trkpt lat="30.8997460" lon="34.8101130">
<ele>554.600037</ele>
<time>2015-03-03T11:54:26.000Z</time>
</trkpt>
<trkpt lat="30.9001230" lon="34.8106280">
<ele>556.500000</ele>
<time>2015-03-03T11:54:30.000Z</time>
</trkpt>
<trkpt lat="30.9006200" lon="34.8110890">
<ele>559.000000</ele>
<time>2015-03-03T11:54:21.000Z</time>
</trkpt>
<trkpt lat="30.9010340" lon="34.8104990">
<ele>559.900024</ele>
<time>2015-03-03T11:54:32.000Z</time>
</trkpt>
<trkpt lat="30.9012740" lon="34.8099520">
<ele>563.799988</ele>
<time>2015-03-03T11:54:33.000Z</time>
</trkpt>
<trkpt lat="30.9013010" lon="34.8095440">
<ele>566.200012</ele>
<time>2015-03-03T11:55:45.000Z</time>
</trkpt>
<trkpt lat="30.9011820" lon="34.8091800">
<ele>568.000000</ele>
<time>2015-03-03T11:54:34.000Z</time>
</trkpt>
<trkpt lat="30.9014110" lon="34.8090080">
<ele>569.099976</ele>
<time>2014-01-03T09:01:17.000Z</time>
</trkpt>
<trkpt lat="30.9015870" lon="34.8090510">
<ele>568.500000</ele>
<time>2015-03-03T11:54:35.000Z</time>
</trkpt>
<trkpt lat="30.9017710" lon="34.8089010">
<ele>569.000000</ele>
<time>2015-03-03T11:54:37.000Z</time>
</trkpt>
<trkpt lat="30.9023600" lon="34.8092760">
<ele>567.599976</ele>
<time>2015-03-03T11:54:41.000Z</time>
</trkpt>
<trkpt lat="30.9025260" lon="34.8094370">
<ele>567.400024</ele>
<time>2015-03-03T11:54:40.000Z</time>
</trkpt>
<trkpt lat="30.9032870" lon="34.8099520">
<ele>568.500000</ele>
<time>2015-03-03T11:54:43.000Z</time>
</trkpt>
<trkpt lat="30.9034190" lon="34.8106820">
<ele>568.299988</ele>
<time>2015-03-03T11:54:44.000Z</time>
</trkpt>
<trkpt lat="30.9038240" lon="34.8113470">
<ele>569.700012</ele>
<time>2015-03-03T11:54:45.000Z</time>
</trkpt>
<trkpt lat="30.9040000" lon="34.8119480">
<ele>572.700012</ele>
<time>2014-01-03T09:01:38.000Z</time>
</trkpt>
<trkpt lat="30.9039070" lon="34.8122270">
<ele>573.700012</ele>
<time>2015-03-03T11:54:47.000Z</time>
</trkpt>
<trkpt lat="30.9039990" lon="34.8127310">
<ele>575.500000</ele>
<time>2015-03-03T11:54:49.000Z</time>
</trkpt>
<trkpt lat="30.9038430" lon="34.8134930">
<ele>576.200012</ele>
<time>2015-03-03T11:54:50.000Z</time>
</trkpt>
<trkpt lat="30.9039530" lon="34.8141040">
<ele>576.900024</ele>
<time>2015-03-03T11:54:51.000Z</time>
</trkpt>
<trkpt lat="30.9037980" lon="34.8145440">
<ele>577.899963</ele>
<time>2014-01-03T09:01:48.000Z</time>
</trkpt>
<trkpt lat="30.9038790" lon="34.8150700">
<ele>579.299988</ele>
<time>2015-03-03T11:54:52.000Z</time>
</trkpt>
<trkpt lat="30.9036490" lon="34.8156710">
<ele>578.400024</ele>
<time>2015-03-03T11:54:53.000Z</time>
</trkpt>
<trkpt lat="30.9030970" lon="34.8159390">
<ele>581.400024</ele>
<time>2014-01-03T09:02:05.000Z</time>
</trkpt>
<trkpt lat="30.9029500" lon="34.8160780">
<ele>582.000000</ele>
<time>2015-03-03T11:54:55.000Z</time>
</trkpt>
<trkpt lat="30.9027470" lon="34.8164000">
<ele>576.500000</ele>
<time>2015-03-03T11:54:57.000Z</time>
</trkpt>
<trkpt lat="30.9022960" lon="34.8164220">
<ele>575.899963</ele>
<time>2015-03-03T11:54:58.000Z</time>
</trkpt>
<trkpt lat="30.9020480" lon="34.8163680">
<ele>577.500000</ele>
<time>2014-01-03T09:02:17.000Z</time>
</trkpt>
<trkpt lat="30.9018820" lon="34.8163140">
<ele>579.399963</ele>
<time>2015-03-03T11:55:00.000Z</time>
</trkpt>
<trkpt lat="30.9015450" lon="34.8165080">
<ele>576.299988</ele>
<time>2015-03-03T11:55:03.000Z</time>
</trkpt>
<trkpt lat="30.9013880" lon="34.8167220">
<ele>573.900024</ele>
<time>2015-03-03T11:55:06.000Z</time>
</trkpt>
<trkpt lat="30.9012690" lon="34.8167440">
<ele>574.900024</ele>
<time>2015-03-03T11:55:07.000Z</time>
</trkpt>
<trkpt lat="30.9011830" lon="34.8169900">
<ele>572.000000</ele>
<time>2014-01-03T09:02:36.000Z</time>
</trkpt>
<trkpt lat="30.9011670" lon="34.8170650">
<ele>571.200012</ele>
<time>2015-03-03T11:55:09.000Z</time>
</trkpt>
<trkpt lat="30.9007070" lon="34.8171190">
<ele>570.299988</ele>
<time>2015-03-03T11:55:11.000Z</time>
</trkpt>
<trkpt lat="30.9004980" lon="34.8174840">
<ele>563.500000</ele>
<time>2015-03-03T11:56:14.000Z</time>
</trkpt>
<trkpt lat="30.9003170" lon="34.8176130">
<ele>560.099976</ele>
<time>2014-01-03T09:02:55.000Z</time>
</trkpt>
<trkpt lat="30.8997840" lon="34.8176770">
<ele>551.700012</ele>
<time>2015-03-03T11:54:15.000Z</time>
</trkpt>
<trkpt lat="30.8994160" lon="34.8174620">
<ele>549.799988</ele>
<time>2014-01-03T09:03:07.000Z</time>
</trkpt>
<trkpt lat="30.8991610" lon="34.8169580">
<ele>553.000000</ele>
<time>2015-03-03T11:55:14.000Z</time>
</trkpt>
<trkpt lat="30.8986610" lon="34.8164750">
<ele>548.200012</ele>
<time>2015-03-03T11:54:14.000Z</time>
</trkpt>
<trkpt lat="30.8981270" lon="34.8154450">
<ele>537.200012</ele>
<time>2014-01-03T09:03:18.000Z</time>
</trkpt>
<trkpt lat="30.8976480" lon="34.8152520">
<ele>535.799988</ele>
<time>2015-03-03T11:54:13.000Z</time>
</trkpt>
<trkpt lat="30.8971510" lon="34.8153170">
<ele>531.900024</ele>
<time>2015-03-03T11:54:12.000Z</time>
</trkpt>
<trkpt lat="30.8967910" lon="34.8151230">
<ele>534.100037</ele>
<time>2015-03-03T11:56:16.000Z</time>
</trkpt>
<trkpt lat="30.8965240" lon="34.8150810">
<ele>534.700012</ele>
<time>2014-01-03T09:04:21.000Z</time>
</trkpt>
<trkpt lat="30.8958250" lon="34.8151230">
<ele>533.000000</ele>
<time>2015-03-03T11:54:10.000Z</time>
</trkpt>
<trkpt lat="30.8946470" lon="34.8157030">
<ele>525.799988</ele>
<time>2015-03-03T11:54:08.000Z</time>
</trkpt>
<trkpt lat="30.8938730" lon="34.8157890">
<ele>528.500000</ele>
<time>2015-03-03T11:54:03.000Z</time>
</trkpt>
<trkpt lat="30.8928610" lon="34.8168400">
<ele>516.299988</ele>
<time>2015-03-03T11:54:05.000Z</time>
</trkpt>
<trkpt lat="30.8922120" lon="34.8169580">
<ele>510.200012</ele>
<time>2015-03-03T11:55:19.000Z</time>
</trkpt>
<trkpt lat="30.8913190" lon="34.8175160">
<ele>504.300018</ele>
<time>2015-03-03T11:55:20.000Z</time>
</trkpt>
<trkpt lat="30.8913650" lon="34.8178590">
<ele>504.300018</ele>
<time>2014-01-03T09:06:23.000Z</time>
</trkpt>
<trkpt lat="30.8913100" lon="34.8180520">
<ele>504.300018</ele>
<time>2014-01-03T09:06:35.000Z</time>
</trkpt>
<trkpt lat="30.8917990" lon="34.8187020">
<ele>506.299988</ele>
<time>2014-01-03T09:06:49.000Z</time>
</trkpt>
<trkpt lat="30.8921960" lon="34.8191560">
<ele>507.099976</ele>
<time>2014-01-03T09:07:01.000Z</time>
</trkpt>
<trkpt lat="30.8924810" lon="34.8195710">
<ele>507.900024</ele>
<time>2014-01-03T09:07:13.000Z</time>
</trkpt>
<trkpt lat="30.8927870" lon="34.8199340">
<ele>508.200012</ele>
<time>2014-01-03T09:07:21.000Z</time>
</trkpt>
<trkpt lat="30.8931620" lon="34.8204470">
<ele>508.100006</ele>
<time>2014-01-03T09:07:36.000Z</time>
</trkpt>
<trkpt lat="30.8933010" lon="34.8209460">
<ele>507.900024</ele>
<time>2014-01-03T09:07:51.000Z</time>
</trkpt>
<trkpt lat="30.8932360" lon="34.8210300">
<ele>507.500000</ele>
<time>2014-01-03T09:08:00.000Z</time>
</trkpt>
<trkpt lat="30.8931720" lon="34.8209410">
<ele>507.399994</ele>
<time>2014-01-03T09:08:10.000Z</time>
</trkpt>
<trkpt lat="30.8932200" lon="34.8206870">
<ele>508.000000</ele>
<time>2014-01-03T09:08:37.000Z</time>
</trkpt>
<trkpt lat="30.8932140" lon="34.8205570">
<ele>508.200012</ele>
<time>2014-01-03T09:08:39.000Z</time>
</trkpt>
<trkpt lat="30.8931800" lon="34.8204170">
<ele>508.299988</ele>
<time>2014-01-03T09:08:42.000Z</time>
</trkpt>
<trkpt lat="30.8931130" lon="34.8202990">
<ele>508.500000</ele>
<time>2014-01-03T09:08:46.000Z</time>
</trkpt>
<trkpt lat="30.8929380" lon="34.8201150">
<ele>508.200012</ele>
<time>2014-01-03T09:08:50.000Z</time>
</trkpt>
<trkpt lat="30.8928160" lon="34.8199200">
<ele>508.399994</ele>
<time>2014-01-03T09:08:54.000Z</time>
</trkpt>
<trkpt lat="30.8925850" lon="34.8196840">
<ele>508.100006</ele>
<time>2014-01-03T09:09:01.000Z</time>
</trkpt>
<trkpt lat="30.8922900" lon="34.8193180">
<ele>507.300018</ele>
<time>2014-01-03T09:09:14.000Z</time>
</trkpt>
<trkpt lat="30.8920790" lon="34.8193550">
<ele>506.299988</ele>
<time>2014-01-03T09:09:27.000Z</time>
</trkpt>
<trkpt lat="30.8918410" lon="34.8196040">
<ele>504.799988</ele>
<time>2014-01-03T09:09:40.000Z</time>
</trkpt>
<trkpt lat="30.8915680" lon="34.8197920">
<ele>503.199982</ele>
<time>2014-01-03T09:09:50.000Z</time>
</trkpt>
<trkpt lat="30.8914670" lon="34.8198350">
<ele>502.699982</ele>
<time>2014-01-03T09:09:52.000Z</time>
</trkpt>
<trkpt lat="30.8913770" lon="34.8198610">
<ele>502.200012</ele>
<time>2014-01-03T09:09:55.000Z</time>
</trkpt>
<trkpt lat="30.8911160" lon="34.8198760">
<ele>501.100006</ele>
<time>2014-01-03T09:10:00.000Z</time>
</trkpt>
<trkpt lat="30.8908990" lon="34.8199390">
<ele>500.200012</ele>
<time>2014-01-03T09:10:07.000Z</time>
</trkpt>
<trkpt lat="30.8907910" lon="34.8199700">
<ele>499.800018</ele>
<time>2014-01-03T09:10:10.000Z</time>
</trkpt>
<trkpt lat="30.8904890" lon="34.8201510">
<ele>498.899994</ele>
<time>2014-01-03T09:10:19.000Z</time>
</trkpt>
<trkpt lat="30.8903250" lon="34.8203470">
<ele>498.700012</ele>
<time>2014-01-03T09:10:25.000Z</time>
</trkpt>
<trkpt lat="30.8902080" lon="34.8205340">
<ele>498.299988</ele>
<time>2014-01-03T09:10:30.000Z</time>
</trkpt>
<trkpt lat="30.8900570" lon="34.8208410">
<ele>497.399994</ele>
<time>2014-01-03T09:10:39.000Z</time>
</trkpt>
<trkpt lat="30.8891420" lon="34.8225370">
<ele>499.000031</ele>
<time>2014-01-03T09:11:29.000Z</time>
</trkpt>
<trkpt lat="30.8889840" lon="34.8228800">
<ele>498.199982</ele>
<time>2014-01-03T09:11:39.000Z</time>
</trkpt>
<trkpt lat="30.8888260" lon="34.8234250">
<ele>498.899994</ele>
<time>2014-01-03T09:11:54.000Z</time>
</trkpt>
<trkpt lat="30.8885470" lon="34.8238280">
<ele>499.800018</ele>
<time>2014-01-03T09:12:07.000Z</time>
</trkpt>
<trkpt lat="30.8885270" lon="34.8239350">
<ele>499.900024</ele>
<time>2014-01-03T09:12:09.000Z</time>
</trkpt>
<trkpt lat="30.8885370" lon="34.8242050">
<ele>500.200012</ele>
<time>2014-01-03T09:12:14.000Z</time>
</trkpt>
<trkpt lat="30.8884180" lon="34.8244110">
<ele>500.500031</ele>
<time>2014-01-03T09:12:22.000Z</time>
</trkpt>
<trkpt lat="30.8885870" lon="34.8246630">
<ele>500.399994</ele>
<time>2014-01-03T09:12:30.000Z</time>
</trkpt>
<trkpt lat="30.8887890" lon="34.8249420">
<ele>500.100006</ele>
<time>2014-01-03T09:12:48.000Z</time>
</trkpt>
<trkpt lat="30.8887150" lon="34.8253280">
<ele>500.200012</ele>
<time>2014-01-03T09:12:52.000Z</time>
</trkpt>
<trkpt lat="30.8887890" lon="34.8258860">
<ele>501.799988</ele>
<time>2014-01-03T09:13:20.000Z</time>
</trkpt>
<trkpt lat="30.8887710" lon="34.8266800">
<ele>502.100006</ele>
<time>2014-01-03T09:13:30.000Z</time>
</trkpt>
<trkpt lat="30.8904460" lon="34.8275160">
<ele>507.300018</ele>
<time>2014-01-03T09:13:32.000Z</time>
</trkpt>
<trkpt lat="30.8911170" lon="34.8272160">
<ele>510.600006</ele>
<time>2015-03-03T10:33:08.000Z</time>
</trkpt>
<trkpt lat="30.8919200" lon="34.8270660">
<ele>508.500000</ele>
<time>2014-01-03T09:13:39.000Z</time>
</trkpt>
<trkpt lat="30.8924170" lon="34.8276880">
<ele>507.699982</ele>
<time>2015-03-03T10:05:19.000Z</time>
</trkpt>
<trkpt lat="30.8931200" lon="34.8277950">
<ele>503.799988</ele>
<time>2015-03-03T10:05:20.000Z</time>
</trkpt>
<trkpt lat="30.8939670" lon="34.8288900">
<ele>507.300018</ele>
<time>2015-03-03T10:05:21.000Z</time>
</trkpt>
<trkpt lat="30.8951270" lon="34.8297690">
<ele>505.899994</ele>
<time>2015-03-03T10:05:21.000Z</time>
</trkpt>
<trkpt lat="30.8956280" lon="34.8303700">
<ele>506.000000</ele>
<time>2015-03-03T10:05:23.000Z</time>
</trkpt>
<trkpt lat="30.8959710" lon="34.8306710">
<ele>508.399994</ele>
<time>2015-03-03T10:33:04.000Z</time>
</trkpt>
<trkpt lat="30.8961800" lon="34.8310350">
<ele>510.200012</ele>
<time>2015-03-03T10:05:24.000Z</time>
</trkpt>
<trkpt lat="30.8964750" lon="34.8314000">
<ele>510.300018</ele>
<time>2015-03-03T10:05:25.000Z</time>
</trkpt>
<trkpt lat="30.8967320" lon="34.8320230">
<ele>509.100006</ele>
<time>2015-03-03T10:05:28.000Z</time>
</trkpt>
<trkpt lat="30.8966400" lon="34.8330740">
<ele>514.200012</ele>
<time>2015-03-03T10:05:29.000Z</time>
</trkpt>
<trkpt lat="30.8967880" lon="34.8335030">
<ele>514.900024</ele>
<time>2015-03-03T10:05:30.000Z</time>
</trkpt>
<trkpt lat="30.8965970" lon="34.8350270">
<ele>518.200012</ele>
<time>2015-03-03T10:33:01.000Z</time>
</trkpt>
<trkpt lat="30.8963580" lon="34.8354090">
<ele>517.900024</ele>
<time>2015-03-03T10:05:31.000Z</time>
</trkpt>
<trkpt lat="30.8960260" lon="34.8364540">
<ele>517.400024</ele>
<time>2015-03-03T10:33:02.000Z</time>
</trkpt>
<trkpt lat="30.8958740" lon="34.8375360">
<ele>520.500000</ele>
<time>2015-03-03T10:05:35.000Z</time>
</trkpt>
<trkpt lat="30.8954800" lon="34.8381580">
<ele>520.400024</ele>
<time>2015-03-03T10:06:17.000Z</time>
</trkpt>
<trkpt lat="30.8947940" lon="34.8389540">
<ele>524.700012</ele>
<time>2015-03-03T10:06:18.000Z</time>
</trkpt>
<trkpt lat="30.8941410" lon="34.8401760">
<ele>526.299988</ele>
<time>2015-03-03T10:07:09.000Z</time>
</trkpt>
<trkpt lat="30.8948220" lon="34.8406270">
<ele>522.000000</ele>
<time>2015-03-03T10:07:10.000Z</time>
</trkpt>
<trkpt lat="30.8957020" lon="34.8425370">
<ele>536.200012</ele>
<time>2015-03-03T10:07:12.000Z</time>
</trkpt>
<trkpt lat="30.8953930" lon="34.8421290">
<ele>530.299988</ele>
<time>2015-03-03T10:07:13.000Z</time>
</trkpt>
<trkpt lat="30.8949690" lon="34.8423650">
<ele>529.799988</ele>
<time>2015-03-03T10:07:13.000Z</time>
</trkpt>
<trkpt lat="30.8946750" lon="34.8424940">
<ele>529.099976</ele>
<time>2015-03-03T10:07:27.000Z</time>
</trkpt>
<trkpt lat="30.8943250" lon="34.8435450">
<ele>536.799988</ele>
<time>2015-03-03T10:07:28.000Z</time>
</trkpt>
<trkpt lat="30.8935700" lon="34.8438030">
<ele>534.000000</ele>
<time>2015-03-03T10:07:29.000Z</time>
</trkpt>
<trkpt lat="30.8935110" lon="34.8444570">
<ele>538.000000</ele>
<time>2015-03-03T10:32:58.000Z</time>
</trkpt>
<trkpt lat="30.8936250" lon="34.8451760">
<ele>543.399963</ele>
<time>2015-03-03T10:07:30.000Z</time>
</trkpt>
<trkpt lat="30.8938640" lon="34.8456480">
<ele>548.599976</ele>
<time>2015-03-03T10:07:30.000Z</time>
</trkpt>
<trkpt lat="30.8938640" lon="34.8462920">
<ele>552.500000</ele>
<time>2015-03-03T10:07:32.000Z</time>
</trkpt>
<trkpt lat="30.8935510" lon="34.8464210">
<ele>551.900024</ele>
<time>2015-03-03T10:07:32.000Z</time>
</trkpt>
<trkpt lat="30.8933860" lon="34.8469790">
<ele>556.599976</ele>
<time>2015-03-03T10:30:27.000Z</time>
</trkpt>
<trkpt lat="30.8929620" lon="34.8477080">
<ele>556.100037</ele>
<time>2015-03-03T10:30:33.000Z</time>
</trkpt>
<trkpt lat="30.8929810" lon="34.8482870">
<ele>556.500000</ele>
<time>2015-03-03T10:30:37.000Z</time>
</trkpt>
<trkpt lat="30.8936250" lon="34.8487170">
<ele>570.200012</ele>
<time>2015-03-03T10:30:34.000Z</time>
</trkpt>
<trkpt lat="30.8939060" lon="34.8491460">
<ele>569.899963</ele>
<time>2015-03-03T10:32:49.000Z</time>
</trkpt>
<trkpt lat="30.8940850" lon="34.8497470">
<ele>565.000000</ele>
<time>2015-03-03T10:30:49.000Z</time>
</trkpt>
<trkpt lat="30.8941960" lon="34.8510980">
<ele>566.700012</ele>
<time>2015-03-03T10:07:34.000Z</time>
</trkpt>
<trkpt lat="30.8943390" lon="34.8524070">
<ele>574.299988</ele>
<time>2015-03-03T10:32:50.000Z</time>
</trkpt>
<trkpt lat="30.8945870" lon="34.8533410">
<ele>579.500000</ele>
<time>2015-03-03T10:32:47.000Z</time>
</trkpt>
<trkpt lat="30.8945520" lon="34.8545530">
<ele>582.500000</ele>
<time>2015-03-03T10:07:36.000Z</time>
</trkpt>
<trkpt lat="30.8943760" lon="34.8553680">
<ele>577.899963</ele>
<time>2015-03-03T10:32:54.000Z</time>
</trkpt>
<trkpt lat="30.8942840" lon="34.8575680">
<ele>574.799988</ele>
<time>2015-03-03T10:32:53.000Z</time>
</trkpt>
<trkpt lat="30.8940630" lon="34.8590910">
<ele>576.900024</ele>
<time>2015-03-03T10:32:45.000Z</time>
</trkpt>
<trkpt lat="30.8941540" lon="34.8598750">
<ele>577.399963</ele>
<time>2015-03-03T10:07:38.000Z</time>
</trkpt>
<trkpt lat="30.8940120" lon="34.8602290">
<ele>574.200012</ele>
<time>2015-03-03T10:36:13.000Z</time>
</trkpt>
<trkpt lat="30.8941220" lon="34.8605510">
<ele>575.099976</ele>
<time>2015-03-03T10:36:11.000Z</time>
</trkpt>
<trkpt lat="30.8939330" lon="34.8608190">
<ele>572.799988</ele>
<time>2015-03-03T10:32:32.000Z</time>
</trkpt>
<trkpt lat="30.8934590" lon="34.8600790">
<ele>568.299988</ele>
<time>2015-03-03T10:36:14.000Z</time>
</trkpt>
<trkpt lat="30.8929210" lon="34.8596390">
<ele>562.299988</ele>
<time>2015-03-03T10:32:29.000Z</time>
</trkpt>
<trkpt lat="30.8919820" lon="34.8585870">
<ele>557.099976</ele>
<time>2015-03-03T10:32:13.000Z</time>
</trkpt>
<trkpt lat="30.8911210" lon="34.8583400">
<ele>554.700012</ele>
<time>2015-03-03T10:36:17.000Z</time>
</trkpt>
<trkpt lat="30.8905270" lon="34.8578360">
<ele>553.799988</ele>
<time>2015-03-03T10:32:24.000Z</time>
</trkpt>
<trkpt lat="30.8891280" lon="34.8572570">
<ele>555.000000</ele>
<time>2015-03-03T10:32:17.000Z</time>
</trkpt>
<trkpt lat="30.8885570" lon="34.8565060">
<ele>556.299988</ele>
<time>2015-03-03T10:32:03.000Z</time>
</trkpt>
<trkpt lat="30.8888560" lon="34.8558080">
<ele>554.500000</ele>
<time>2015-03-03T10:36:21.000Z</time>
</trkpt>
<trkpt lat="30.8892980" lon="34.8544140">
<ele>548.400024</ele>
<time>2015-03-03T10:36:19.000Z</time>
</trkpt>
<trkpt lat="30.8897170" lon="34.8535020">
<ele>547.899963</ele>
<time>2015-03-03T10:32:37.000Z</time>
</trkpt>
<trkpt lat="30.8902510" lon="34.8524500">
<ele>551.500000</ele>
<time>2015-03-03T10:07:39.000Z</time>
</trkpt>
<trkpt lat="30.8879200" lon="34.8533180">
<ele>565.000000</ele>
<time>2015-03-03T10:07:40.000Z</time>
</trkpt>
<trkpt lat="30.8861990" lon="34.8532340">
<ele>572.500000</ele>
<time>2015-03-03T10:07:41.000Z</time>
</trkpt>
<trkpt lat="30.8855190" lon="34.8521180">
<ele>574.000000</ele>
<time>2015-03-03T10:35:39.000Z</time>
</trkpt>
<trkpt lat="30.8849480" lon="34.8518170">
<ele>570.599976</ele>
<time>2015-03-03T10:07:42.000Z</time>
</trkpt>
<trkpt lat="30.8844320" lon="34.8500580">
<ele>568.200012</ele>
<time>2015-03-03T10:35:42.000Z</time>
</trkpt>
<trkpt lat="30.8833460" lon="34.8488130">
<ele>563.900024</ele>
<time>2015-03-03T10:07:44.000Z</time>
</trkpt>
<trkpt lat="30.8808410" lon="34.8465170">
<ele>545.400024</ele>
<time>2015-03-03T10:07:45.000Z</time>
</trkpt>
<trkpt lat="30.8795520" lon="34.8449720">
<ele>540.500000</ele>
<time>2015-03-03T10:07:49.000Z</time>
</trkpt>
<trkpt lat="30.8785580" lon="34.8432340">
<ele>539.200012</ele>
<time>2015-03-03T10:07:49.000Z</time>
</trkpt>
<trkpt lat="30.8782450" lon="34.8425690">
<ele>538.000000</ele>
<time>2015-03-03T10:07:50.000Z</time>
</trkpt>
<trkpt lat="30.8780790" lon="34.8419250">
<ele>536.400024</ele>
<time>2015-03-03T10:07:51.000Z</time>
</trkpt>
<trkpt lat="30.8782080" lon="34.8412600">
<ele>536.299988</ele>
<time>2015-03-03T10:07:54.000Z</time>
</trkpt>
<trkpt lat="30.8783180" lon="34.8407670">
<ele>534.900024</ele>
<time>2015-03-03T10:07:56.000Z</time>
</trkpt>
<trkpt lat="30.8787420" lon="34.8396080">
<ele>532.000000</ele>
<time>2015-03-03T10:07:58.000Z</time>
</trkpt>
<trkpt lat="30.8786500" lon="34.8385560">
<ele>534.400024</ele>
<time>2015-03-03T10:07:59.000Z</time>
</trkpt>
<trkpt lat="30.8782630" lon="34.8379340">
<ele>531.700012</ele>
<time>2015-03-03T10:08:00.000Z</time>
</trkpt>
<trkpt lat="30.8781530" lon="34.8376340">
<ele>531.799988</ele>
<time>2015-03-03T10:08:01.000Z</time>
</trkpt>
<trkpt lat="30.8781480" lon="34.8369240">
<ele>534.100037</ele>
<time>2015-03-03T10:08:03.000Z</time>
</trkpt>
<trkpt lat="30.8788790" lon="34.8359390">
<ele>530.299988</ele>
<time>2015-03-03T10:36:42.000Z</time>
</trkpt>
<trkpt lat="30.8788970" lon="34.8349730">
<ele>531.599976</ele>
<time>2015-03-03T10:08:04.000Z</time>
</trkpt>
<trkpt lat="30.8798600" lon="34.8341830">
<ele>524.000000</ele>
<time>2015-03-03T10:08:05.000Z</time>
</trkpt>
<trkpt lat="30.8801620" lon="34.8330780">
<ele>522.599976</ele>
<time>2015-03-03T10:08:07.000Z</time>
</trkpt>
<trkpt lat="30.8800850" lon="34.8328580">
<ele>522.799988</ele>
<time>2015-03-03T10:08:08.000Z</time>
</trkpt>
<trkpt lat="30.8802900" lon="34.8327460">
<ele>522.200012</ele>
<time>2014-01-03T09:18:40.000Z</time>
</trkpt>
<trkpt lat="30.8799090" lon="34.8328000">
<ele>523.799988</ele>
<time>2014-01-03T09:18:55.000Z</time>
</trkpt>
<trkpt lat="30.8794250" lon="34.8327050">
<ele>526.500000</ele>
<time>2014-01-03T09:19:15.000Z</time>
</trkpt>
<trkpt lat="30.8793270" lon="34.8327030">
<ele>527.099976</ele>
<time>2014-01-03T09:19:19.000Z</time>
</trkpt>
<trkpt lat="30.8790410" lon="34.8327780">
<ele>528.599976</ele>
<time>2014-01-03T09:19:31.000Z</time>
</trkpt>
<trkpt lat="30.8788370" lon="34.8327340">
<ele>529.900024</ele>
<time>2014-01-03T09:19:39.000Z</time>
</trkpt>
<trkpt lat="30.8783570" lon="34.8326990">
<ele>532.299988</ele>
<time>2014-01-03T09:20:00.000Z</time>
</trkpt>
<trkpt lat="30.8779700" lon="34.8326280">
<ele>534.100037</ele>
<time>2014-01-03T09:20:19.000Z</time>
</trkpt>
<trkpt lat="30.8778680" lon="34.8325860">
<ele>534.599976</ele>
<time>2014-01-03T09:20:24.000Z</time>
</trkpt>
<trkpt lat="30.8776350" lon="34.8323880">
<ele>535.500000</ele>
<time>2014-01-03T09:20:39.000Z</time>
</trkpt>
<trkpt lat="30.8775370" lon="34.8323620">
<ele>535.700012</ele>
<time>2014-01-03T09:20:46.000Z</time>
</trkpt>
<trkpt lat="30.8772610" lon="34.8323520">
<ele>536.500000</ele>
<time>2014-01-03T09:21:07.000Z</time>
</trkpt>
<trkpt lat="30.8771720" lon="34.8323200">
<ele>536.599976</ele>
<time>2014-01-03T09:21:14.000Z</time>
</trkpt>
<trkpt lat="30.8770010" lon="34.8322190">
<ele>536.700012</ele>
<time>2014-01-03T09:21:29.000Z</time>
</trkpt>
<trkpt lat="30.8767940" lon="34.8322080">
<ele>537.200012</ele>
<time>2014-01-03T09:22:24.000Z</time>
</trkpt>
<trkpt lat="30.8763900" lon="34.8320550">
<ele>537.599976</ele>
<time>2014-01-03T09:24:39.000Z</time>
</trkpt>
<trkpt lat="30.8762900" lon="34.8320730">
<ele>537.900024</ele>
<time>2014-01-03T09:24:45.000Z</time>
</trkpt>
<trkpt lat="30.8761060" lon="34.8321790">
<ele>538.600037</ele>
<time>2014-01-03T09:24:51.000Z</time>
</trkpt>
<trkpt lat="30.8760090" lon="34.8321770">
<ele>538.600037</ele>
<time>2014-01-03T09:24:54.000Z</time>
</trkpt>
<trkpt lat="30.8759150" lon="34.8321410">
<ele>538.399963</ele>
<time>2014-01-03T09:24:58.000Z</time>
</trkpt>
<trkpt lat="30.8757310" lon="34.8320290">
<ele>537.900024</ele>
<time>2014-01-03T09:25:09.000Z</time>
</trkpt>
<trkpt lat="30.8756380" lon="34.8320120">
<ele>537.900024</ele>
<time>2014-01-03T09:25:16.000Z</time>
</trkpt>
<trkpt lat="30.8755880" lon="34.8320150">
<ele>537.900024</ele>
<time>2014-01-03T09:25:37.000Z</time>
</trkpt>
<trkpt lat="30.8754160" lon="34.8321380">
<ele>538.399963</ele>
<time>2014-01-03T09:25:44.000Z</time>
</trkpt>
<trkpt lat="30.8753100" lon="34.8321520">
<ele>538.500000</ele>
<time>2014-01-03T09:25:48.000Z</time>
</trkpt>
<trkpt lat="30.8752030" lon="34.8321310">
<ele>538.399963</ele>
<time>2014-01-03T09:25:51.000Z</time>
</trkpt>
<trkpt lat="30.8750200" lon="34.8322140">
<ele>539.099976</ele>
<time>2014-01-03T09:25:56.000Z</time>
</trkpt>
<trkpt lat="30.8749270" lon="34.8321510">
<ele>538.600037</ele>
<time>2014-01-03T09:26:00.000Z</time>
</trkpt>
<trkpt lat="30.8747740" lon="34.8319840">
<ele>537.500000</ele>
<time>2014-01-03T09:26:07.000Z</time>
</trkpt>
<trkpt lat="30.8746750" lon="34.8319360">
<ele>537.200012</ele>
<time>2014-01-03T09:26:10.000Z</time>
</trkpt>
<trkpt lat="30.8744450" lon="34.8319060">
<ele>536.899963</ele>
<time>2014-01-03T09:26:15.000Z</time>
</trkpt>
<trkpt lat="30.8743350" lon="34.8318760">
<ele>536.599976</ele>
<time>2014-01-03T09:26:19.000Z</time>
</trkpt>
<trkpt lat="30.8740200" lon="34.8318470">
<ele>536.200012</ele>
<time>2014-01-03T09:26:27.000Z</time>
</trkpt>
<trkpt lat="30.8735760" lon="34.8317360">
<ele>535.500000</ele>
<time>2014-01-03T09:26:38.000Z</time>
</trkpt>
<trkpt lat="30.8734620" lon="34.8317540">
<ele>535.900024</ele>
<time>2014-01-03T09:26:46.000Z</time>
</trkpt>
<trkpt lat="30.8732680" lon="34.8316000">
<ele>535.200012</ele>
<time>2014-01-03T09:26:53.000Z</time>
</trkpt>
<trkpt lat="30.8728650" lon="34.8314180">
<ele>535.200012</ele>
<time>2014-01-03T09:27:05.000Z</time>
</trkpt>
<trkpt lat="30.8726470" lon="34.8313580">
<ele>535.700012</ele>
<time>2014-01-03T09:27:12.000Z</time>
</trkpt>
<trkpt lat="30.8725290" lon="34.8313520">
<ele>536.200012</ele>
<time>2014-01-03T09:27:14.000Z</time>
</trkpt>
<trkpt lat="30.8723230" lon="34.8314210">
<ele>537.100037</ele>
<time>2014-01-03T09:27:21.000Z</time>
</trkpt>
<trkpt lat="30.8720260" lon="34.8313530">
<ele>537.700012</ele>
<time>2014-01-03T09:27:29.000Z</time>
</trkpt>
<trkpt lat="30.8717150" lon="34.8313930">
<ele>536.299988</ele>
<time>2014-01-03T09:27:39.000Z</time>
</trkpt>
<trkpt lat="30.8716310" lon="34.8313000">
<ele>535.900024</ele>
<time>2014-01-03T09:27:41.000Z</time>
</trkpt>
<trkpt lat="30.8715280" lon="34.8312430">
<ele>535.399963</ele>
<time>2014-01-03T09:27:44.000Z</time>
</trkpt>
<trkpt lat="30.8713140" lon="34.8311840">
<ele>534.299988</ele>
<time>2014-01-03T09:27:51.000Z</time>
</trkpt>
<trkpt lat="30.8710930" lon="34.8312040">
<ele>533.599976</ele>
<time>2014-01-03T09:27:55.000Z</time>
</trkpt>
<trkpt lat="30.8708930" lon="34.8311910">
<ele>533.000000</ele>
<time>2014-01-03T09:27:59.000Z</time>
</trkpt>
<trkpt lat="30.8706030" lon="34.8310110">
<ele>531.599976</ele>
<time>2014-01-03T09:28:06.000Z</time>
</trkpt>
<trkpt lat="30.8703000" lon="34.8308770">
<ele>530.200012</ele>
<time>2014-01-03T09:28:11.000Z</time>
</trkpt>
<trkpt lat="30.8699370" lon="34.8306650">
<ele>528.599976</ele>
<time>2014-01-03T09:28:34.000Z</time>
</trkpt>
<trkpt lat="30.8699040" lon="34.8306660">
<ele>528.500000</ele>
<time>2014-01-03T09:29:13.000Z</time>
</trkpt>
<trkpt lat="30.8701650" lon="34.8307770">
<ele>529.500000</ele>
<time>2014-01-03T09:30:23.000Z</time>
</trkpt>
<trkpt lat="30.8701030" lon="34.8308450">
<ele>529.900024</ele>
<time>2014-01-03T09:30:34.000Z</time>
</trkpt>
<trkpt lat="30.8698970" lon="34.8308750">
<ele>530.000000</ele>
<time>2014-01-03T09:30:46.000Z</time>
</trkpt>
<trkpt lat="30.8695960" lon="34.8307570">
<ele>528.900024</ele>
<time>2014-01-03T09:30:56.000Z</time>
</trkpt>
<trkpt lat="30.8693160" lon="34.8307010">
<ele>529.799988</ele>
<time>2014-01-03T09:31:04.000Z</time>
</trkpt>
<trkpt lat="30.8692130" lon="34.8307040">
<ele>530.299988</ele>
<time>2014-01-03T09:31:08.000Z</time>
</trkpt>
<trkpt lat="30.8687310" lon="34.8308050">
<ele>532.700012</ele>
<time>2014-01-03T09:31:20.000Z</time>
</trkpt>
<trkpt lat="30.8686380" lon="34.8308330">
<ele>533.400024</ele>
<time>2014-01-03T09:31:21.000Z</time>
</trkpt>
<trkpt lat="30.8683120" lon="34.8308550">
<ele>536.099976</ele>
<time>2014-01-03T09:31:28.000Z</time>
</trkpt>
<trkpt lat="30.8680990" lon="34.8308900">
<ele>537.599976</ele>
<time>2014-01-03T09:31:34.000Z</time>
</trkpt>
<trkpt lat="30.8680090" lon="34.8309350">
<ele>538.000000</ele>
<time>2014-01-03T09:31:36.000Z</time>
</trkpt>
<trkpt lat="30.8678980" lon="34.8309280">
<ele>538.700012</ele>
<time>2014-01-03T09:31:40.000Z</time>
</trkpt>
<trkpt lat="30.8677030" lon="34.8308500">
<ele>538.900024</ele>
<time>2014-01-03T09:31:48.000Z</time>
</trkpt>
<trkpt lat="30.8672050" lon="34.8308090">
<ele>537.799988</ele>
<time>2014-01-03T09:32:14.000Z</time>
</trkpt>
<trkpt lat="30.8667930" lon="34.8306450">
<ele>535.500000</ele>
<time>2014-01-03T09:32:36.000Z</time>
</trkpt>
<trkpt lat="30.8666070" lon="34.8305440">
<ele>534.000000</ele>
<time>2014-01-03T09:32:42.000Z</time>
</trkpt>
<trkpt lat="30.8661390" lon="34.8302330">
<ele>530.099976</ele>
<time>2014-01-03T09:33:01.000Z</time>
</trkpt>
<trkpt lat="30.8660370" lon="34.8301300">
<ele>529.500000</ele>
<time>2014-01-03T09:33:05.000Z</time>
</trkpt>
<trkpt lat="30.8658670" lon="34.8298230">
<ele>527.899963</ele>
<time>2014-01-03T09:33:15.000Z</time>
</trkpt>
<trkpt lat="30.8657780" lon="34.8294690">
<ele>526.400024</ele>
<time>2014-01-03T09:33:23.000Z</time>
</trkpt>
<trkpt lat="30.8656810" lon="34.8289200">
<ele>524.099976</ele>
<time>2014-01-03T09:33:35.000Z</time>
</trkpt>
<trkpt lat="30.8656440" lon="34.8287820">
<ele>523.500000</ele>
<time>2014-01-03T09:33:39.000Z</time>
</trkpt>
<trkpt lat="30.8653700" lon="34.8282090">
<ele>522.200012</ele>
<time>2014-01-03T09:33:51.000Z</time>
</trkpt>
<trkpt lat="30.8653330" lon="34.8279460">
<ele>522.200012</ele>
<time>2014-01-03T09:33:57.000Z</time>
</trkpt>
<trkpt lat="30.8653750" lon="34.8276970">
<ele>521.099976</ele>
<time>2014-01-03T09:34:03.000Z</time>
</trkpt>
<trkpt lat="30.8653750" lon="34.8275850">
<ele>520.599976</ele>
<time>2014-01-03T09:34:06.000Z</time>
</trkpt>
<trkpt lat="30.8653330" lon="34.8273160">
<ele>519.599976</ele>
<time>2014-01-03T09:34:13.000Z</time>
</trkpt>
<trkpt lat="30.8652780" lon="34.8271820">
<ele>519.400024</ele>
<time>2014-01-03T09:34:16.000Z</time>
</trkpt>
<trkpt lat="30.8651140" lon="34.8269880">
<ele>520.700012</ele>
<time>2014-01-03T09:34:21.000Z</time>
</trkpt>
<trkpt lat="30.8649110" lon="34.8268430">
<ele>522.899963</ele>
<time>2014-01-03T09:34:28.000Z</time>
</trkpt>
<trkpt lat="30.8647930" lon="34.8268100">
<ele>523.900024</ele>
<time>2014-01-03T09:34:30.000Z</time>
</trkpt>
<trkpt lat="30.8647090" lon="34.8268570">
<ele>524.200012</ele>
<time>2014-01-03T09:34:33.000Z</time>
</trkpt>
<trkpt lat="30.8646470" lon="34.8269480">
<ele>524.200012</ele>
<time>2014-01-03T09:34:37.000Z</time>
</trkpt>
<trkpt lat="30.8645450" lon="34.8269250">
<ele>524.799988</ele>
<time>2014-01-03T09:34:41.000Z</time>
</trkpt>
<trkpt lat="30.8642810" lon="34.8265690">
<ele>526.200012</ele>
<time>2014-01-03T09:35:03.000Z</time>
</trkpt>
<trkpt lat="30.8641200" lon="34.8264350">
<ele>526.200012</ele>
<time>2014-01-03T09:35:14.000Z</time>
</trkpt>
<trkpt lat="30.8641100" lon="34.8263270">
<ele>526.200012</ele>
<time>2014-01-03T09:35:18.000Z</time>
</trkpt>
<trkpt lat="30.8641630" lon="34.8253940">
<ele>531.100037</ele>
<time>2014-01-03T09:36:06.000Z</time>
</trkpt>
<trkpt lat="30.8641470" lon="34.8251440">
<ele>532.200012</ele>
<time>2014-01-03T09:36:16.000Z</time>
</trkpt>
<trkpt lat="30.8641740" lon="34.8249300">
<ele>533.400024</ele>
<time>2014-01-03T09:36:21.000Z</time>
</trkpt>
<trkpt lat="30.8641700" lon="34.8246990">
<ele>534.500000</ele>
<time>2014-01-03T09:36:31.000Z</time>
</trkpt>
<trkpt lat="30.8641880" lon="34.8241060">
<ele>534.599976</ele>
<time>2014-01-03T09:37:02.000Z</time>
</trkpt>
<trkpt lat="30.8641760" lon="34.8234160">
<ele>534.299988</ele>
<time>2014-01-03T09:37:30.000Z</time>
</trkpt>
<trkpt lat="30.8641910" lon="34.8229670">
<ele>534.799988</ele>
<time>2014-01-03T09:37:46.000Z</time>
</trkpt>
<trkpt lat="30.8642280" lon="34.8223940">
<ele>531.599976</ele>
<time>2014-01-03T09:38:06.000Z</time>
</trkpt>
<trkpt lat="30.8642730" lon="34.8220410">
<ele>530.200012</ele>
<time>2014-01-03T09:38:19.000Z</time>
</trkpt>
<trkpt lat="30.8642760" lon="34.8217960">
<ele>529.500000</ele>
<time>2014-01-03T09:38:27.000Z</time>
</trkpt>
<trkpt lat="30.8641310" lon="34.8215130">
<ele>526.000000</ele>
<time>2014-01-03T09:38:42.000Z</time>
</trkpt>
<trkpt lat="30.8639150" lon="34.8209660">
<ele>519.899963</ele>
<time>2014-01-03T09:39:00.000Z</time>
</trkpt>
<trkpt lat="30.8638070" lon="34.8207830">
<ele>516.299988</ele>
<time>2014-01-03T09:39:14.000Z</time>
</trkpt>
<trkpt lat="30.8637200" lon="34.8207270">
<ele>514.200012</ele>
<time>2014-01-03T09:39:22.000Z</time>
</trkpt>
<trkpt lat="30.8636640" lon="34.8207110">
<ele>513.299988</ele>
<time>2014-01-03T09:39:32.000Z</time>
</trkpt>
<trkpt lat="30.8635740" lon="34.8206040">
<ele>511.200012</ele>
<time>2014-01-03T09:40:00.000Z</time>
</trkpt>
<trkpt lat="30.8635870" lon="34.8206470">
<ele>511.700012</ele>
<time>2014-01-03T09:41:20.000Z</time>
</trkpt>
<trkpt lat="30.8636330" lon="34.8206530">
<ele>512.400024</ele>
<time>2014-01-03T09:41:42.000Z</time>
</trkpt>
<trkpt lat="30.8636370" lon="34.8206760">
<ele>512.700012</ele>
<time>2014-01-03T09:42:23.000Z</time>
</trkpt>
<trkpt lat="30.8635960" lon="34.8206680">
<ele>512.100037</ele>
<time>2014-01-03T09:43:02.000Z</time>
</trkpt>
<trkpt lat="30.8636480" lon="34.8206670">
<ele>512.700012</ele>
<time>2014-01-03T09:45:43.000Z</time>
</trkpt>
<trkpt lat="30.8636320" lon="34.8206880">
<ele>512.700012</ele>
<time>2014-01-03T09:48:22.000Z</time>
</trkpt>
<trkpt lat="30.8636230" lon="34.8206700">
<ele>512.400024</ele>
<time>2014-01-03T09:49:03.000Z</time>
</trkpt>
<trkpt lat="30.8636980" lon="34.8207040">
<ele>513.700012</ele>
<time>2014-01-03T09:50:52.000Z</time>
</trkpt>
<trkpt lat="30.8637100" lon="34.8207520">
<ele>514.299988</ele>
<time>2014-01-03T09:52:12.000Z</time>
</trkpt>
<trkpt lat="30.8638230" lon="34.8206180">
<ele>515.399963</ele>
<time>2014-01-03T09:52:28.000Z</time>
</trkpt>
<trkpt lat="30.8641220" lon="34.8201880">
<ele>517.400024</ele>
<time>2014-01-03T09:52:44.000Z</time>
</trkpt>
<trkpt lat="30.8644710" lon="34.8195450">
<ele>519.799988</ele>
<time>2014-01-03T09:53:04.000Z</time>
</trkpt>
<trkpt lat="30.8646140" lon="34.8192560">
<ele>524.299988</ele>
<time>2014-01-03T09:53:11.000Z</time>
</trkpt>
<trkpt lat="30.8646360" lon="34.8191240">
<ele>524.600037</ele>
<time>2014-01-03T09:53:14.000Z</time>
</trkpt>
<trkpt lat="30.8645730" lon="34.8187430">
<ele>523.599976</ele>
<time>2014-01-03T09:53:20.000Z</time>
</trkpt>
<trkpt lat="30.8645520" lon="34.8181620">
<ele>520.599976</ele>
<time>2014-01-03T09:53:31.000Z</time>
</trkpt>
<trkpt lat="30.8645040" lon="34.8174640">
<ele>515.099976</ele>
<time>2014-01-03T09:53:45.000Z</time>
</trkpt>
<trkpt lat="30.8644940" lon="34.8173250">
<ele>514.000000</ele>
<time>2014-01-03T09:53:47.000Z</time>
</trkpt>
<trkpt lat="30.8645300" lon="34.8169570">
<ele>512.900024</ele>
<time>2014-01-03T09:53:57.000Z</time>
</trkpt>
<trkpt lat="30.8645090" lon="34.8168190">
<ele>511.800018</ele>
<time>2014-01-03T09:54:01.000Z</time>
</trkpt>
<trkpt lat="30.8643840" lon="34.8166120">
<ele>508.399994</ele>
<time>2014-01-03T09:54:09.000Z</time>
</trkpt>
<trkpt lat="30.8639100" lon="34.8156550">
<ele>501.300018</ele>
<time>2014-01-03T09:54:40.000Z</time>
</trkpt>
<trkpt lat="30.8637760" lon="34.8154220">
<ele>501.100006</ele>
<time>2014-01-03T09:54:44.000Z</time>
</trkpt>
<trkpt lat="30.8636750" lon="34.8151660">
<ele>500.600006</ele>
<time>2014-01-03T09:54:48.000Z</time>
</trkpt>
<trkpt lat="30.8636820" lon="34.8150390">
<ele>500.700012</ele>
<time>2014-01-03T09:54:51.000Z</time>
</trkpt>
<trkpt lat="30.8638320" lon="34.8145250">
<ele>500.600006</ele>
<time>2014-01-03T09:54:59.000Z</time>
</trkpt>
<trkpt lat="30.8639620" lon="34.8142870">
<ele>500.100006</ele>
<time>2014-01-03T09:55:03.000Z</time>
</trkpt>
<trkpt lat="30.8647310" lon="34.8136310">
<ele>497.800018</ele>
<time>2014-01-03T09:55:18.000Z</time>
</trkpt>
<trkpt lat="30.8652140" lon="34.8131230">
<ele>494.700012</ele>
<time>2014-01-03T09:55:30.000Z</time>
</trkpt>
<trkpt lat="30.8653860" lon="34.8129420">
<ele>494.100006</ele>
<time>2014-01-03T09:55:34.000Z</time>
</trkpt>
<trkpt lat="30.8655260" lon="34.8127350">
<ele>493.200012</ele>
<time>2014-01-03T09:55:38.000Z</time>
</trkpt>
<trkpt lat="30.8655580" lon="34.8126240">
<ele>492.899994</ele>
<time>2014-01-03T09:55:39.000Z</time>
</trkpt>
<trkpt lat="30.8655640" lon="34.8122770">
<ele>492.199982</ele>
<time>2014-01-03T09:55:46.000Z</time>
</trkpt>
<trkpt lat="30.8655970" lon="34.8120570">
<ele>491.699982</ele>
<time>2014-01-03T09:55:53.000Z</time>
</trkpt>
<trkpt lat="30.8656690" lon="34.8118320">
<ele>490.699982</ele>
<time>2014-01-03T09:56:04.000Z</time>
</trkpt>
<trkpt lat="30.8656030" lon="34.8115510">
<ele>489.499969</ele>
<time>2014-01-03T09:56:09.000Z</time>
</trkpt>
<trkpt lat="30.8655670" lon="34.8112100">
<ele>488.100006</ele>
<time>2014-01-03T09:56:15.000Z</time>
</trkpt>
<trkpt lat="30.8653760" lon="34.8107520">
<ele>486.700012</ele>
<time>2014-01-03T09:56:23.000Z</time>
</trkpt>
<trkpt lat="30.8651750" lon="34.8102090">
<ele>484.600006</ele>
<time>2014-01-03T09:56:31.000Z</time>
</trkpt>
<trkpt lat="30.8650440" lon="34.8099650">
<ele>483.800018</ele>
<time>2014-01-03T09:56:35.000Z</time>
</trkpt>
<trkpt lat="30.8648820" lon="34.8097330">
<ele>483.200012</ele>
<time>2014-01-03T09:56:39.000Z</time>
</trkpt>
<trkpt lat="30.8647100" lon="34.8093470">
<ele>482.799988</ele>
<time>2014-01-03T09:56:44.000Z</time>
</trkpt>
<trkpt lat="30.8644630" lon="34.8090000">
<ele>482.500000</ele>
<time>2014-01-03T09:56:51.000Z</time>
</trkpt>
<trkpt lat="30.8639580" lon="34.8081540">
<ele>482.399994</ele>
<time>2014-01-03T09:57:05.000Z</time>
</trkpt>
<trkpt lat="30.8637820" lon="34.8076050">
<ele>480.899994</ele>
<time>2014-01-03T09:57:13.000Z</time>
</trkpt>
<trkpt lat="30.8636170" lon="34.8071990">
<ele>479.099976</ele>
<time>2014-01-03T09:57:18.000Z</time>
</trkpt>
<trkpt lat="30.8635010" lon="34.8069570">
<ele>478.299988</ele>
<time>2014-01-03T09:57:22.000Z</time>
</trkpt>
<trkpt lat="30.8634210" lon="34.8068630">
<ele>478.100006</ele>
<time>2014-01-03T09:57:25.000Z</time>
</trkpt>
<trkpt lat="30.8629980" lon="34.8067220">
<ele>477.200012</ele>
<time>2014-01-03T09:57:33.000Z</time>
</trkpt>
<trkpt lat="30.8627240" lon="34.8065400">
<ele>477.200012</ele>
<time>2014-01-03T09:57:38.000Z</time>
</trkpt>
<trkpt lat="30.8619480" lon="34.8063320">
<ele>477.800018</ele>
<time>2014-01-03T09:57:56.000Z</time>
</trkpt>
<trkpt lat="30.8615790" lon="34.8061840">
<ele>477.299988</ele>
<time>2014-01-03T09:58:04.000Z</time>
</trkpt>
<trkpt lat="30.8610430" lon="34.8059360">
<ele>476.699982</ele>
<time>2014-01-03T09:58:16.000Z</time>
</trkpt>
<trkpt lat="30.8606740" lon="34.8057860">
<ele>475.399994</ele>
<time>2014-01-03T09:58:24.000Z</time>
</trkpt>
<trkpt lat="30.8604890" lon="34.8056890">
<ele>474.600006</ele>
<time>2014-01-03T09:58:28.000Z</time>
</trkpt>
<trkpt lat="30.8602440" lon="34.8054770">
<ele>473.899994</ele>
<time>2014-01-03T09:58:36.000Z</time>
</trkpt>
<trkpt lat="30.8601290" lon="34.8054810">
<ele>473.700012</ele>
<time>2014-01-03T09:58:40.000Z</time>
</trkpt>
<trkpt lat="30.8599300" lon="34.8055720">
<ele>473.600006</ele>
<time>2014-01-03T09:58:47.000Z</time>
</trkpt>
<trkpt lat="30.8595060" lon="34.8056960">
<ele>473.400024</ele>
<time>2014-01-03T09:58:58.000Z</time>
</trkpt>
<trkpt lat="30.8593800" lon="34.8057210">
<ele>473.600006</ele>
<time>2014-01-03T09:59:01.000Z</time>
</trkpt>
<trkpt lat="30.8592700" lon="34.8056750">
<ele>473.700012</ele>
<time>2014-01-03T09:59:03.000Z</time>
</trkpt>
<trkpt lat="30.8592270" lon="34.8054560">
<ele>473.500000</ele>
<time>2014-01-03T09:59:10.000Z</time>
</trkpt>
<trkpt lat="30.8591230" lon="34.8053940">
<ele>473.400024</ele>
<time>2014-01-03T09:59:14.000Z</time>
</trkpt>
<trkpt lat="30.8589090" lon="34.8054670">
<ele>473.899994</ele>
<time>2014-01-03T09:59:20.000Z</time>
</trkpt>
<trkpt lat="30.8587900" lon="34.8054660">
<ele>474.000031</ele>
<time>2014-01-03T09:59:22.000Z</time>
</trkpt>
<trkpt lat="30.8586820" lon="34.8054080">
<ele>473.899994</ele>
<time>2014-01-03T09:59:25.000Z</time>
</trkpt>
<trkpt lat="30.8585950" lon="34.8053140">
<ele>473.300018</ele>
<time>2014-01-03T09:59:29.000Z</time>
</trkpt>
<trkpt lat="30.8584960" lon="34.8052490">
<ele>473.100006</ele>
<time>2014-01-03T09:59:32.000Z</time>
</trkpt>
<trkpt lat="30.8582690" lon="34.8051620">
<ele>473.300018</ele>
<time>2014-01-03T09:59:37.000Z</time>
</trkpt>
<trkpt lat="30.8574300" lon="34.8049400">
<ele>476.100006</ele>
<time>2014-01-03T10:00:00.000Z</time>
</trkpt>
<trkpt lat="30.8572130" lon="34.8048110">
<ele>476.999969</ele>
<time>2014-01-03T10:00:07.000Z</time>
</trkpt>
<trkpt lat="30.8571070" lon="34.8047960">
<ele>477.399994</ele>
<time>2014-01-03T10:00:09.000Z</time>
</trkpt>
<trkpt lat="30.8569890" lon="34.8048190">
<ele>477.299988</ele>
<time>2014-01-03T10:00:12.000Z</time>
</trkpt>
<trkpt lat="30.8568770" lon="34.8047850">
<ele>477.299988</ele>
<time>2014-01-03T10:00:16.000Z</time>
</trkpt>
<trkpt lat="30.8566680" lon="34.8044790">
<ele>477.399994</ele>
<time>2014-01-03T10:00:24.000Z</time>
</trkpt>
<trkpt lat="30.8565750" lon="34.8044440">
<ele>477.299988</ele>
<time>2014-01-03T10:00:27.000Z</time>
</trkpt>
<trkpt lat="30.8564280" lon="34.8045790">
<ele>477.200012</ele>
<time>2014-01-03T10:00:34.000Z</time>
</trkpt>
<trkpt lat="30.8563400" lon="34.8046180">
<ele>476.999969</ele>
<time>2014-01-03T10:00:36.000Z</time>
</trkpt>
<trkpt lat="30.8561180" lon="34.8048590">
<ele>476.199982</ele>
<time>2014-01-03T10:00:46.000Z</time>
</trkpt>
<trkpt lat="30.8560120" lon="34.8049040">
<ele>476.100006</ele>
<time>2014-01-03T10:00:50.000Z</time>
</trkpt>
<trkpt lat="30.8558240" lon="34.8050550">
<ele>475.600006</ele>
<time>2014-01-03T10:00:58.000Z</time>
</trkpt>
<trkpt lat="30.8556750" lon="34.8051040">
<ele>475.500031</ele>
<time>2014-01-03T10:01:13.000Z</time>
</trkpt>
<trkpt lat="30.8556620" lon="34.8050500">
<ele>475.600006</ele>
<time>2014-01-03T10:03:01.000Z</time>
</trkpt>
<trkpt lat="30.8557500" lon="34.8050070">
<ele>475.700012</ele>
<time>2014-01-03T10:03:10.000Z</time>
</trkpt>
<trkpt lat="30.8558010" lon="34.8049080">
<ele>475.899994</ele>
<time>2014-01-03T10:03:17.000Z</time>
</trkpt>
<trkpt lat="30.8558980" lon="34.8045320">
<ele>476.500000</ele>
<time>2014-01-03T10:03:29.000Z</time>
</trkpt>
<trkpt lat="30.8559380" lon="34.8045660">
<ele>476.600006</ele>
<time>2014-01-03T10:03:40.000Z</time>
</trkpt>
<trkpt lat="30.8558680" lon="34.8044840">
<ele>476.399994</ele>
<time>2014-01-03T10:03:44.000Z</time>
</trkpt>
<trkpt lat="30.8558410" lon="34.8043730">
<ele>476.300018</ele>
<time>2014-01-03T10:03:48.000Z</time>
</trkpt>
<trkpt lat="30.8558790" lon="34.8042730">
<ele>476.199982</ele>
<time>2014-01-03T10:03:52.000Z</time>
</trkpt>
<trkpt lat="30.8560100" lon="34.8041050">
<ele>476.399994</ele>
<time>2014-01-03T10:03:59.000Z</time>
</trkpt>
<trkpt lat="30.8560420" lon="34.8039870">
<ele>476.399994</ele>
<time>2014-01-03T10:04:02.000Z</time>
</trkpt>
<trkpt lat="30.8561840" lon="34.8037260">
<ele>476.799988</ele>
<time>2014-01-03T10:04:07.000Z</time>
</trkpt>
<trkpt lat="30.8561980" lon="34.8035790">
<ele>476.899994</ele>
<time>2014-01-03T10:04:11.000Z</time>
</trkpt>
<trkpt lat="30.8561660" lon="34.8032380">
<ele>476.899994</ele>
<time>2014-01-03T10:04:17.000Z</time>
</trkpt>
<trkpt lat="30.8561730" lon="34.8031190">
<ele>476.999969</ele>
<time>2014-01-03T10:04:19.000Z</time>
</trkpt>
<trkpt lat="30.8562100" lon="34.8030160">
<ele>476.999969</ele>
<time>2014-01-03T10:04:21.000Z</time>
</trkpt>
<trkpt lat="30.8563630" lon="34.8028430">
<ele>476.500000</ele>
<time>2014-01-03T10:04:25.000Z</time>
</trkpt>
<trkpt lat="30.8565130" lon="34.8026030">
<ele>475.299988</ele>
<time>2014-01-03T10:04:30.000Z</time>
</trkpt>
<trkpt lat="30.8566110" lon="34.8025470">
<ele>475.000000</ele>
<time>2014-01-03T10:04:34.000Z</time>
</trkpt>
<trkpt lat="30.8567250" lon="34.8025290">
<ele>474.800018</ele>
<time>2014-01-03T10:04:37.000Z</time>
</trkpt>
<trkpt lat="30.8568260" lon="34.8024510">
<ele>474.500000</ele>
<time>2014-01-03T10:04:39.000Z</time>
</trkpt>
<trkpt lat="30.8568810" lon="34.8023550">
<ele>474.100006</ele>
<time>2014-01-03T10:04:42.000Z</time>
</trkpt>
<trkpt lat="30.8571780" lon="34.8019920">
<ele>473.300018</ele>
<time>2014-01-03T10:04:50.000Z</time>
</trkpt>
<trkpt lat="30.8575530" lon="34.8014870">
<ele>475.399994</ele>
<time>2014-01-03T10:05:02.000Z</time>
</trkpt>
<trkpt lat="30.8576830" lon="34.8011830">
<ele>476.000000</ele>
<time>2014-01-03T10:05:09.000Z</time>
</trkpt>
<trkpt lat="30.8577130" lon="34.8010640">
<ele>475.299988</ele>
<time>2014-01-03T10:05:11.000Z</time>
</trkpt>
<trkpt lat="30.8577640" lon="34.8005910">
<ele>472.100006</ele>
<time>2014-01-03T10:05:19.000Z</time>
</trkpt>
<trkpt lat="30.8577460" lon="34.8002480">
<ele>471.600006</ele>
<time>2014-01-03T10:05:24.000Z</time>
</trkpt>
<trkpt lat="30.8576980" lon="34.7998870">
<ele>473.199982</ele>
<time>2014-01-03T10:05:31.000Z</time>
</trkpt>
<trkpt lat="30.8576910" lon="34.7995140">
<ele>474.399994</ele>
<time>2014-01-03T10:05:36.000Z</time>
</trkpt>
<trkpt lat="30.8576000" lon="34.7986280">
<ele>474.300018</ele>
<time>2014-01-03T10:05:51.000Z</time>
</trkpt>
<trkpt lat="30.8575480" lon="34.7983550">
<ele>472.700012</ele>
<time>2014-01-03T10:05:55.000Z</time>
</trkpt>
<trkpt lat="30.8574750" lon="34.7976950">
<ele>470.600006</ele>
<time>2014-01-03T10:06:05.000Z</time>
</trkpt>
<trkpt lat="30.8574310" lon="34.7974310">
<ele>471.399994</ele>
<time>2014-01-03T10:06:09.000Z</time>
</trkpt>
<trkpt lat="30.8574230" lon="34.7973010">
<ele>471.900024</ele>
<time>2014-01-03T10:06:10.000Z</time>
</trkpt>
<trkpt lat="30.8574320" lon="34.7971770">
<ele>472.299988</ele>
<time>2014-01-03T10:06:13.000Z</time>
</trkpt>
<trkpt lat="30.8575010" lon="34.7969340">
<ele>472.899994</ele>
<time>2014-01-03T10:06:18.000Z</time>
</trkpt>
<trkpt lat="30.8574880" lon="34.7968280">
<ele>473.300018</ele>
<time>2014-01-03T10:06:19.000Z</time>
</trkpt>
<trkpt lat="30.8573050" lon="34.7962960">
<ele>474.900024</ele>
<time>2014-01-03T10:06:32.000Z</time>
</trkpt>
<trkpt lat="30.8572710" lon="34.7961530">
<ele>474.600006</ele>
<time>2014-01-03T10:06:34.000Z</time>
</trkpt>
<trkpt lat="30.8572340" lon="34.7957220">
<ele>473.000000</ele>
<time>2014-01-03T10:06:44.000Z</time>
</trkpt>
<trkpt lat="30.8571560" lon="34.7953200">
<ele>472.100006</ele>
<time>2014-01-03T10:06:53.000Z</time>
</trkpt>
<trkpt lat="30.8570590" lon="34.7949700">
<ele>472.599976</ele>
<time>2014-01-03T10:07:01.000Z</time>
</trkpt>
<trkpt lat="30.8568240" lon="34.7943460">
<ele>474.800018</ele>
<time>2014-01-03T10:07:16.000Z</time>
</trkpt>
<trkpt lat="30.8565410" lon="34.7938060">
<ele>478.000000</ele>
<time>2014-01-03T10:07:28.000Z</time>
</trkpt>
<trkpt lat="30.8562950" lon="34.7932250">
<ele>475.899994</ele>
<time>2014-01-03T10:07:40.000Z</time>
</trkpt>
<trkpt lat="30.8562260" lon="34.7931100">
<ele>475.299988</ele>
<time>2014-01-03T10:07:43.000Z</time>
</trkpt>
<trkpt lat="30.8559690" lon="34.7928200">
<ele>476.399994</ele>
<time>2014-01-03T10:07:53.000Z</time>
</trkpt>
<trkpt lat="30.8557380" lon="34.7924930">
<ele>477.299988</ele>
<time>2014-01-03T10:08:02.000Z</time>
</trkpt>
<trkpt lat="30.8556750" lon="34.7923700">
<ele>477.299988</ele>
<time>2014-01-03T10:08:05.000Z</time>
</trkpt>
<trkpt lat="30.8555900" lon="34.7920850">
<ele>476.799988</ele>
<time>2014-01-03T10:08:10.000Z</time>
</trkpt>
<trkpt lat="30.8555550" lon="34.7917840">
<ele>477.200012</ele>
<time>2014-01-03T10:08:17.000Z</time>
</trkpt>
<trkpt lat="30.8555190" lon="34.7914970">
<ele>477.299988</ele>
<time>2014-01-03T10:08:22.000Z</time>
</trkpt>
<trkpt lat="30.8554780" lon="34.7913590">
<ele>477.299988</ele>
<time>2014-01-03T10:08:25.000Z</time>
</trkpt>
<trkpt lat="30.8552200" lon="34.7910310">
<ele>477.899994</ele>
<time>2014-01-03T10:08:34.000Z</time>
</trkpt>
<trkpt lat="30.8550450" lon="34.7906700">
<ele>478.899994</ele>
<time>2014-01-03T10:08:44.000Z</time>
</trkpt>
<trkpt lat="30.8549400" lon="34.7901650">
<ele>479.099976</ele>
<time>2014-01-03T10:08:55.000Z</time>
</trkpt>
<trkpt lat="30.8549500" lon="34.7899160">
<ele>478.799988</ele>
<time>2014-01-03T10:09:00.000Z</time>
</trkpt>
<trkpt lat="30.8549490" lon="34.7896720">
<ele>478.499969</ele>
<time>2014-01-03T10:09:05.000Z</time>
</trkpt>
<trkpt lat="30.8549190" lon="34.7895480">
<ele>478.399994</ele>
<time>2014-01-03T10:09:08.000Z</time>
</trkpt>
<trkpt lat="30.8549150" lon="34.7894090">
<ele>478.499969</ele>
<time>2014-01-03T10:09:12.000Z</time>
</trkpt>
<trkpt lat="30.8549340" lon="34.7892660">
<ele>478.700012</ele>
<time>2014-01-03T10:09:16.000Z</time>
</trkpt>
<trkpt lat="30.8549390" lon="34.7891270">
<ele>478.799988</ele>
<time>2014-01-03T10:09:18.000Z</time>
</trkpt>
<trkpt lat="30.8549170" lon="34.7890110">
<ele>478.799988</ele>
<time>2014-01-03T10:09:20.000Z</time>
</trkpt>
<trkpt lat="30.8548520" lon="34.7889280">
<ele>478.600006</ele>
<time>2014-01-03T10:09:23.000Z</time>
</trkpt>
<trkpt lat="30.8546620" lon="34.7888270">
<ele>477.500000</ele>
<time>2014-01-03T10:09:31.000Z</time>
</trkpt>
<trkpt lat="30.8544580" lon="34.7888760">
<ele>477.299988</ele>
<time>2014-01-03T10:09:38.000Z</time>
</trkpt>
<trkpt lat="30.8543430" lon="34.7888690">
<ele>477.399994</ele>
<time>2014-01-03T10:09:39.000Z</time>
</trkpt>
<trkpt lat="30.8542590" lon="34.7888290">
<ele>477.399994</ele>
<time>2014-01-03T10:09:42.000Z</time>
</trkpt>
<trkpt lat="30.8540970" lon="34.7886470">
<ele>477.500000</ele>
<time>2014-01-03T10:09:47.000Z</time>
</trkpt>
<trkpt lat="30.8537670" lon="34.7884080">
<ele>477.599976</ele>
<time>2014-01-03T10:09:58.000Z</time>
</trkpt>
<trkpt lat="30.8533600" lon="34.7880670">
<ele>477.599976</ele>
<time>2014-01-03T10:10:14.000Z</time>
</trkpt>
<trkpt lat="30.8532060" lon="34.7879050">
<ele>477.699982</ele>
<time>2014-01-03T10:10:21.000Z</time>
</trkpt>
<trkpt lat="30.8529270" lon="34.7876680">
<ele>478.299988</ele>
<time>2014-01-03T10:10:30.000Z</time>
</trkpt>
<trkpt lat="30.8528420" lon="34.7876290">
<ele>478.499969</ele>
<time>2014-01-03T10:10:33.000Z</time>
</trkpt>
<trkpt lat="30.8529320" lon="34.7876550">
<ele>478.299988</ele>
<time>2014-01-03T10:10:41.000Z</time>
</trkpt>
<trkpt lat="30.8530760" lon="34.7878170">
<ele>478.000000</ele>
<time>2014-01-03T10:10:48.000Z</time>
</trkpt>
<trkpt lat="30.8532510" lon="34.7879230">
<ele>477.599976</ele>
<time>2014-01-03T10:10:57.000Z</time>
</trkpt>
<trkpt lat="30.8528770" lon="34.7876130">
<ele>478.399994</ele>
<time>2014-01-03T10:11:12.000Z</time>
</trkpt>
<trkpt lat="30.8527910" lon="34.7875700">
<ele>478.600006</ele>
<time>2014-01-03T10:11:15.000Z</time>
</trkpt>
<trkpt lat="30.8526410" lon="34.7874100">
<ele>479.099976</ele>
<time>2014-01-03T10:11:22.000Z</time>
</trkpt>
<trkpt lat="30.8519780" lon="34.7868720">
<ele>480.899994</ele>
<time>2014-01-03T10:11:42.000Z</time>
</trkpt>
<trkpt lat="30.8519610" lon="34.7867310">
<ele>481.000000</ele>
<time>2014-01-03T10:11:46.000Z</time>
</trkpt>
<trkpt lat="30.8519670" lon="34.7866110">
<ele>481.000000</ele>
<time>2014-01-03T10:11:50.000Z</time>
</trkpt>
<trkpt lat="30.8518170" lon="34.7858550">
<ele>481.500000</ele>
<time>2014-01-03T10:12:04.000Z</time>
</trkpt>
<trkpt lat="30.8516990" lon="34.7853260">
<ele>481.600006</ele>
<time>2014-01-03T10:12:13.000Z</time>
</trkpt>
<trkpt lat="30.8516320" lon="34.7849300">
<ele>481.799988</ele>
<time>2014-01-03T10:12:21.000Z</time>
</trkpt>
<trkpt lat="30.8516250" lon="34.7846540">
<ele>482.000000</ele>
<time>2014-01-03T10:12:28.000Z</time>
</trkpt>
<trkpt lat="30.8514220" lon="34.7839180">
<ele>480.500000</ele>
<time>2014-01-03T10:12:43.000Z</time>
</trkpt>
<trkpt lat="30.8513960" lon="34.7837000">
<ele>480.000000</ele>
<time>2014-01-03T10:12:47.000Z</time>
</trkpt>
<trkpt lat="30.8513410" lon="34.7834870">
<ele>480.000000</ele>
<time>2014-01-03T10:12:51.000Z</time>
</trkpt>
<trkpt lat="30.8512130" lon="34.7826720">
<ele>480.599976</ele>
<time>2014-01-03T10:13:07.000Z</time>
</trkpt>
<trkpt lat="30.8511790" lon="34.7825280">
<ele>480.899994</ele>
<time>2014-01-03T10:13:10.000Z</time>
</trkpt>
<trkpt lat="30.8511930" lon="34.7823930">
<ele>481.199982</ele>
<time>2014-01-03T10:13:12.000Z</time>
</trkpt>
<trkpt lat="30.8511810" lon="34.7824670">
<ele>481.000000</ele>
<time>2014-01-03T10:13:22.000Z</time>
</trkpt>
<trkpt lat="30.8512310" lon="34.7825650">
<ele>480.800018</ele>
<time>2014-01-03T10:13:29.000Z</time>
</trkpt>
<trkpt lat="30.8512900" lon="34.7828920">
<ele>480.000000</ele>
<time>2014-01-03T10:13:44.000Z</time>
</trkpt>
<trkpt lat="30.8513010" lon="34.7831190">
<ele>480.000000</ele>
<time>2014-01-03T10:13:52.000Z</time>
</trkpt>
<trkpt lat="30.8511900" lon="34.7825480">
<ele>480.899994</ele>
<time>2014-01-03T10:14:06.000Z</time>
</trkpt>
<trkpt lat="30.8511290" lon="34.7824340">
<ele>481.100006</ele>
<time>2014-01-03T10:14:09.000Z</time>
</trkpt>
<trkpt lat="30.8509970" lon="34.7824190">
<ele>481.000000</ele>
<time>2014-01-03T10:14:13.000Z</time>
</trkpt>
<trkpt lat="30.8506080" lon="34.7824880">
<ele>480.599976</ele>
<time>2014-01-03T10:14:21.000Z</time>
</trkpt>
<trkpt lat="30.8505100" lon="34.7824900">
<ele>480.599976</ele>
<time>2014-01-03T10:14:24.000Z</time>
</trkpt>
<trkpt lat="30.8504100" lon="34.7824260">
<ele>480.599976</ele>
<time>2014-01-03T10:14:28.000Z</time>
</trkpt>
<trkpt lat="30.8503740" lon="34.7822940">
<ele>480.599976</ele>
<time>2014-01-03T10:14:31.000Z</time>
</trkpt>
<trkpt lat="30.8501520" lon="34.7810190">
<ele>481.799988</ele>
<time>2014-01-03T10:14:58.000Z</time>
</trkpt>
<trkpt lat="30.8500420" lon="34.7805030">
<ele>482.000000</ele>
<time>2014-01-03T10:15:09.000Z</time>
</trkpt>
<trkpt lat="30.8499830" lon="34.7800890">
<ele>481.600006</ele>
<time>2014-01-03T10:15:18.000Z</time>
</trkpt>
<trkpt lat="30.8499670" lon="34.7792950">
<ele>480.299988</ele>
<time>2014-01-03T10:15:36.000Z</time>
</trkpt>
<trkpt lat="30.8499060" lon="34.7792170">
<ele>480.100006</ele>
<time>2014-01-03T10:15:38.000Z</time>
</trkpt>
<trkpt lat="30.8498490" lon="34.7792380">
<ele>480.200012</ele>
<time>2014-01-03T10:15:49.000Z</time>
</trkpt>
</trkseg>
</trk>
</gpx>
